YYYY MM/DD hh:mm Temp Humid W_dir W_spd Barom T_int Light Power Temp2 P2 Snow T_mid T_base Precip
Year Date Time (F) (%) (Deg) (MPH) ("Hg) (F) /1000 (V) (F) - (") (F) (F) (")
2026 08/28 00:00 48.7 74.9 178.0 10.2 30.24 64.6 0.0 13.01 -129.9 0 -0.6 47.0 50.3 0 401 0 0 0 65.7 62.4 0.0
2026 08/28 00:15 49.0 73.2 235.3 10.1 30.24 64.4 0.0 12.99 -130.3 0 -997.0 -997.0 50.1 0 401 0 0 0 65.4 62.2 0.0
2026 08/28 00:30 49.2 71.9 197.3 10.5 30.24 64.2 0.0 12.99 -130.5 0 -997.0 -997.0 50.5 0 401 0 0 0 64.8 62.0 0.0
2026 08/28 00:45 49.5 70.0 245.0 10.2 30.24 64.0 0.0 13.01 -130.9 0 -997.0 -997.0 49.4 0 401 0 0 0 64.2 61.7 0.0
2026 08/28 01:00 49.9 68.3 227.9 10.2 30.24 63.8 0.0 13.01 -131.1 0 -0.4 47.9 47.7 0 401 0 0 0 63.7 61.4 0.0
2026 08/28 01:15 51.2 65.1 248.1 12.5 30.23 63.6 0.0 12.99 -131.4 0 -997.0 -997.0 46.5 0 401 0 0 0 63.6 61.4 0.0
2026 08/28 01:30 50.1 67.5 237.7 11.2 30.23 63.4 0.0 13.02 -131.6 0 -997.0 -997.0 48.1 0 401 0 0 0 63.0 61.0 0.0
2026 08/28 01:45 50.4 66.0 267.0 13.5 30.23 63.1 0.0 13.01 -131.8 0 -0.5 47.9 47.1 0 401 0 0 0 62.7 60.7 0.0
2026 08/28 02:00 50.1 66.8 234.8 11.7 30.22 62.9 0.0 13.01 -132.1 0 -0.4 47.0 45.3 0 401 0 0 0 62.2 60.5 0.0
2026 08/28 02:15 50.3 66.9 246.3 10.7 30.22 62.7 0.0 13.01 -132.2 0 -997.0 -997.0 45.1 0 401 0 0 0 62.2 60.5 0.0
2026 08/28 02:30 50.8 67.2 269.9 11.4 30.22 62.5 0.0 13.01 -132.5 0 -997.0 -997.0 43.9 0 401 0 0 0 61.7 60.1 0.0
2026 08/28 02:45 51.1 67.2 251.5 12.2 30.21 62.3 0.0 13.00 -132.7 0 0.0 47.9 43.0 0 401 0 0 0 61.2 59.9 0.0
2026 08/28 03:00 51.1 66.8 268.4 11.3 30.21 62.1 0.0 13.02 -132.9 0 -0.2 48.8 41.8 0 401 0 0 0 60.9 59.6 0.0
2026 08/28 03:15 51.0 67.0 94.5 10.4 30.20 61.9 0.0 12.99 -133.1 0 -997.0 -997.0 41.3 0 401 0 0 0 60.9 59.5 0.0
2026 08/28 03:30 50.6 67.7 271.2 10.7 30.20 61.6 0.0 13.02 -133.3 0 -997.0 -997.0 40.6 0 401 0 0 0 60.6 59.3 0.0
2026 08/28 03:45 51.0 65.1 275.4 12.0 30.19 61.4 0.0 12.99 -133.4 0 -0.3 48.8 40.2 0 401 0 0 0 59.9 58.8 0.0
2026 08/28 04:00 52.0 67.9 288.4 11.5 30.18 61.2 0.0 13.00 -133.7 0 0.1 47.9 39.5 0 401 0 0 0 59.9 58.8 0.0
2026 08/28 04:15 50.4 67.7 281.0 11.2 30.18 61.0 0.0 13.00 -133.8 0 -997.0 -997.0 39.0 0 401 0 0 0 59.4 58.6 0.0
2026 08/28 04:30 50.0 63.6 286.9 10.4 30.18 60.8 0.0 13.01 -133.9 0 -0.3 47.0 38.7 0 401 0 0 0 59.0 58.2 0.0
2026 08/28 04:45 49.4 60.2 309.5 11.5 30.17 60.6 0.0 13.02 -134.0 0 -0.8 47.9 38.2 0 401 0 0 0 58.6 57.9 0.0
2026 08/28 05:00 48.9 63.6 313.0 9.7 30.17 60.4 0.0 12.99 -134.2 0 -0.1 47.0 37.8 0 401 0 0 0 58.0 57.6 0.0
2026 08/28 05:15 48.8 62.8 314.9 8.8 30.17 60.1 0.0 12.99 -134.3 0 -997.0 -997.0 37.6 0 401 0 0 0 57.9 57.5 0.0
2026 08/28 05:30 48.8 62.3 316.9 3.3 30.17 59.9 0.0 13.01 -134.4 0 -997.0 -997.0 37.2 0 401 0 0 0 57.6 57.3 0.0
2026 08/28 05:45 50.4 52.3 224.2 2.9 30.16 59.7 0.0 13.01 -134.5 0 -0.2 47.0 36.8 0 401 0 0 0 57.0 57.0 0.0
2026 08/28 06:00 50.0 58.4 215.5 3.4 30.16 59.5 0.7 13.02 -134.7 0 -0.3 47.0 37.2 0 401 0 0 0 56.7 56.7 0.0
2026 08/28 06:15 50.1 64.5 229.0 3.2 30.16 59.4 14.3 13.01 -134.8 0 -997.0 -997.0 36.3 0 401 0 0 0 56.5 56.6 0.0
2026 08/28 06:30 49.6 63.0 202.3 3.3 30.16 59.2 80.1 13.01 -134.9 0 -997.0 -997.0 36.1 0 401 0 0 0 56.0 56.2 0.0
2026 08/28 06:45 49.9 57.5 114.9 0.0 30.16 59.0 208.0 13.00 -135.0 0 -0.1 47.0 36.4 0 401 0 0 0 55.7 56.1 0.0
2026 08/28 07:00 50.0 64.8 184.2 1.5 30.16 58.9 310.4 13.00 -135.0 0 -0.7 47.9 36.3 0 401 0 0 0 55.4 55.8 0.0
2026 08/28 07:15 52.1 58.9 166.1 1.6 30.16 58.6 381.7 13.01 -135.1 0 -997.0 -997.0 36.8 0 401 0 0 0 55.1 55.7 0.0
2026 08/28 07:30 50.8 58.5 207.7 3.3 30.16 58.4 443.4 13.01 -135.3 0 -1.3 52.4 38.4 0 401 0 0 0 55.0 55.5 0.0
2026 08/28 07:45 50.9 61.2 256.8 1.5 30.16 58.2 481.1 13.01 -135.3 0 -2.0 52.4 40.6 0 401 0 0 0 54.9 55.4 0.0
2026 08/28 08:00 50.8 61.4 265.8 1.3 30.16 58.0 510.6 13.01 -135.4 0 -0.3 51.5 43.0 0 401 0 0 0 54.9 55.2 0.0
2026 08/28 08:15 53.4 55.0 255.4 0.5 30.16 58.0 539.4 13.00 -135.4 0 -997.0 -997.0 44.9 0 401 0 0 0 55.0 55.2 0.0
2026 08/28 08:30 53.0 44.5 251.6 0.8 30.15 57.8 568.6 13.00 -135.5 0 -1.0 56.0 49.8 0 401 0 0 0 55.4 55.2 0.0
2026 08/28 08:45 53.6 42.3 258.5 1.4 30.15 57.6 599.5 13.00 -135.6 0 -997.0 -997.0 54.2 0 401 0 0 0 55.9 55.5 0.0
2026 08/28 09:00 51.7 47.6 284.9 1.6 30.15 57.5 617.5 13.00 -135.6 0 -0.1 55.1 55.2 0 401 0 0 0 56.7 55.8 0.0
2026 08/28 09:15 53.9 41.9 270.1 2.8 30.15 57.4 629.7 13.01 -135.8 0 -997.0 -997.0 56.6 0 401 0 0 0 57.3 56.1 0.0
2026 08/28 09:30 52.8 54.1 322.1 3.1 30.14 57.1 645.3 13.02 -135.8 0 -0.4 57.8 57.6 0 401 0 0 0 58.2 56.8 0.0
2026 08/28 09:45 52.3 53.5 289.9 6.2 30.14 57.1 661.6 13.00 -135.8 0 -0.1 56.9 58.5 0 401 0 0 0 59.4 57.9 0.0
2026 08/28 10:00 52.3 55.0 313.6 7.7 30.14 57.0 677.5 13.00 -135.8 0 -997.0 -997.0 59.2 0 401 0 0 0 60.6 59.1 0.0
2026 08/28 10:15 54.8 51.4 292.0 5.1 30.14 56.9 692.1 13.00 -135.9 0 -997.0 -997.0 59.8 0 401 0 0 0 61.8 60.0 0.0
2026 08/28 10:30 55.4 48.8 207.9 7.1 30.15 56.9 704.0 13.00 -135.9 0 -997.0 -997.0 60.4 0 401 0 0 0 63.3 61.0 0.0
2026 08/28 10:45 55.9 48.7 304.2 4.9 30.15 56.9 715.0 13.01 -135.9 0 -0.1 57.8 61.9 0 401 0 0 0 64.9 62.1 0.0
2026 08/28 11:00 55.9 45.1 296.5 7.5 30.14 56.7 723.0 13.03 -135.9 0 0.2 59.6 62.2 0 401 0 0 0 66.5 63.0 0.0
2026 08/28 11:15 56.1 49.3 305.9 7.4 30.14 56.7 731.0 13.00 -135.9 0 -997.0 -997.0 62.4 0 401 0 0 0 67.5 63.8 0.0
2026 08/28 11:30 57.6 49.9 275.7 9.1 30.14 56.7 737.0 13.03 -135.9 0 0.2 60.5 63.9 0 401 0 0 0 69.1 64.6 0.0
2026 08/28 11:45 59.0 50.4 304.9 6.2 30.14 56.8 740.0 13.02 -135.9 0 -0.1 62.3 64.1 0 401 0 0 0 70.5 65.4 0.0
2026 08/28 12:00 60.9 51.9 203.3 10.8 30.14 56.9 739.0 13.01 -135.9 0 -0.5 61.4 64.8 0 401 0 0 0 71.7 66.0 0.0
2026 08/28 12:15 58.1 52.7 301.1 5.9 30.14 56.9 729.0 13.03 -135.8 0 -997.0 -997.0 65.5 0 401 0 0 0 72.6 66.5 0.0
2026 08/28 12:30 59.3 52.6 292.7 11.4 30.14 56.9 706.0 13.01 -135.8 0 -997.0 -997.0 65.6 0 401 0 0 0 73.8 67.0 0.0
2026 08/28 12:45 61.7 48.7 236.6 8.1 30.14 57.1 695.5 13.03 -135.8 0 -0.7 64.1 66.6 0 401 0 0 0 74.8 67.6 0.0
2026 08/28 13:00 59.9 49.7 313.2 13.4 30.14 57.1 719.0 13.01 -135.8 0 0.0 64.1 68.1 0 401 0 0 0 75.6 68.3 0.0
2026 08/28 13:15 61.5 48.2 298.5 11.8 30.14 57.2 730.0 12.99 -135.6 0 -997.0 -997.0 69.3 0 401 0 0 0 76.0 68.9 0.0
2026 08/28 13:30 61.9 46.8 220.1 9.2 30.14 57.4 723.0 13.01 -135.6 0 -997.0 -997.0 69.0 0 401 0 0 0 76.8 69.3 0.0
2026 08/28 13:45 61.0 45.5 256.3 8.6 30.14 57.6 723.0 13.02 -135.5 0 -997.0 -997.0 70.1 0 401 0 0 0 77.6 69.8 0.0
2026 08/28 14:00 62.2 49.2 264.6 13.2 30.14 57.7 731.0 12.99 -135.4 0 -1.7 67.7 69.9 0 401 0 0 0 78.0 70.2 0.0
2026 08/28 14:15 60.4 49.7 5.6 10.8 30.14 57.8 741.0 13.01 -135.4 0 -997.0 -997.0 70.8 0 401 0 0 0 78.3 70.3 0.0
2026 08/28 14:30 60.9 44.6 288.3 15.2 30.13 58.0 749.0 12.99 -135.3 0 -997.0 -997.0 70.3 0 401 0 0 0 78.5 70.5 0.0
2026 08/28 14:45 62.5 44.6 192.0 17.8 30.14 58.2 750.0 13.00 -135.1 0 -0.4 65.9 70.4 0 401 0 0 0 78.4 70.8 0.0
2026 08/28 15:00 61.3 47.2 200.4 11.5 30.14 58.4 752.0 12.99 -135.0 0 -0.4 65.9 72.3 0 401 0 0 0 78.2 70.6 0.0
2026 08/28 15:15 61.0 47.6 225.2 17.2 30.14 58.6 742.0 13.00 -134.9 0 -997.0 -997.0 71.8 0 401 0 0 0 78.2 70.3 0.0
2026 08/28 15:30 61.6 45.0 228.5 13.9 30.14 58.9 731.0 13.01 -134.8 0 -997.0 -997.0 72.1 0 401 0 0 0 78.0 70.3 0.0
2026 08/28 15:45 61.4 47.5 329.1 11.4 30.13 59.1 725.0 12.99 -134.7 0 -0.5 65.9 71.3 0 401 0 0 0 77.5 70.1 0.0
2026 08/28 16:00 61.1 50.7 301.2 14.4 30.14 59.3 721.0 13.01 -134.5 0 -0.2 65.0 70.9 0 401 0 0 0 76.7 69.6 0.0
2026 08/28 16:15 63.8 49.9 287.7 10.9 30.14 59.5 715.0 13.02 -134.3 0 -997.0 -997.0 73.0 0 401 0 0 0 76.4 69.5 0.0
2026 08/28 16:30 59.4 52.9 292.2 13.2 30.15 59.9 706.0 12.99 -134.2 0 -997.0 -997.0 73.8 0 401 0 0 0 73.5 69.5 0.0
2026 08/28 16:45 60.5 48.1 161.8 12.8 30.15 60.1 692.5 13.00 -133.9 0 -997.0 -997.0 76.3 0 401 0 0 0 74.6 69.4 0.0
2026 08/28 17:00 58.7 52.8 70.3 12.0 30.15 60.5 675.1 13.02 -133.7 0 -0.6 63.2 77.1 0 401 0 0 0 74.8 69.2 0.0
2026 08/28 17:15 60.4 54.8 283.7 12.0 30.15 60.8 659.2 13.00 -133.3 0 -997.0 -997.0 75.7 0 401 0 0 0 74.4 69.0 0.0
2026 08/28 17:30 58.2 58.8 188.2 18.5 30.15 61.1 646.0 13.00 -132.9 0 -997.0 -997.0 73.7 0 401 0 0 0 74.0 68.7 0.0
2026 08/28 17:45 57.8 58.5 313.3 19.2 30.15 61.4 635.5 12.99 -132.6 0 -997.0 -997.0 77.8 0 401 0 0 0 73.4 68.4 0.0
2026 08/28 18:00 56.5 61.5 283.4 19.6 30.15 61.9 626.3 13.00 -132.3 0 -0.6 60.5 77.3 0 401 0 0 0 72.8 68.2 0.0
2026 08/28 18:15 56.9 64.0 282.7 18.6 30.16 62.1 615.4 13.01 -131.8 0 -997.0 -997.0 67.8 0 401 0 0 0 72.5 68.0 0.0
2026 08/28 18:30 55.9 65.8 271.8 15.9 30.16 62.5 596.8 13.02 -131.5 0 -997.0 -997.0 64.7 0 401 0 0 0 73.4 67.7 0.0
2026 08/28 18:45 54.7 68.7 289.1 17.8 30.16 62.8 565.2 13.00 -131.0 0 -997.0 -997.0 62.4 0 401 0 0 0 74.1 67.4 0.0
2026 08/28 19:00 54.2 69.1 262.0 13.9 30.16 63.1 499.0 12.99 -130.6 0 -2.4 56.9 61.8 0 401 0 0 0 74.4 67.0 0.0
2026 08/28 19:15 54.6 72.2 302.4 17.3 30.16 63.5 386.4 13.01 -130.1 0 -997.0 -997.0 60.5 0 401 0 0 0 74.3 66.7 0.0
2026 08/28 19:30 51.6 74.8 5.1 17.8 30.16 63.8 267.0 13.02 -129.8 0 -997.0 -997.0 59.5 0 401 0 0 0 74.7 66.4 0.0
2026 08/28 19:45 50.5 78.0 247.1 15.9 30.16 64.0 146.6 13.01 -129.4 0 -997.0 -997.0 58.4 0 401 0 0 0 74.0 66.0 0.0
2026 08/28 20:00 49.3 81.7 276.3 17.6 30.16 64.3 28.5 13.01 -129.0 0 -2.2 50.6 57.1 0 401 0 0 0 73.4 65.6 0.0
2026 08/28 20:15 48.5 84.7 314.7 19.9 30.17 64.5 3.4 13.01 -128.8 0 -997.0 -997.0 57.3 0 401 0 0 0 72.9 65.4 0.0
2026 08/28 20:30 47.9 86.4 224.4 13.4 30.17 64.6 0.0 13.02 -128.5 0 -0.0 49.7 56.4 0 401 0 0 0 72.3 65.0 0.0
2026 08/28 20:45 47.3 88.5 231.9 15.3 30.18 64.7 0.0 13.01 -128.4 0 -1.2 48.8 56.0 0 401 0 0 0 71.8 64.7 0.0
2026 08/28 21:00 47.9 90.7 199.4 10.1 30.18 64.9 0.0 13.02 -128.3 0 -2.3 48.8 56.0 0 401 0 0 0 71.1 64.2 0.0
2026 08/28 21:15 46.2 91.1 118.7 11.3 30.19 64.9 0.0 13.02 -128.3 0 -997.0 -997.0 55.5 0 401 0 0 0 70.6 64.0 0.0
2026 08/28 21:30 45.9 92.5 238.5 9.2 30.20 65.0 0.0 13.01 -128.4 0 -997.0 -997.0 54.8 0 401 0 0 0 70.2 63.8 0.0
2026 08/28 21:45 47.1 93.4 220.2 8.2 30.19 64.9 0.0 13.00 -128.5 0 -997.0 -997.0 54.7 0 401 0 0 0 69.6 63.6 0.0
2026 08/28 22:00 45.2 93.9 270.8 10.2 30.19 64.9 0.0 13.00 -128.7 0 -1.8 47.0 53.4 0 401 0 0 0 69.2 63.2 0.0
2026 08/28 22:15 45.0 95.9 242.4 13.3 30.19 64.8 0.0 13.02 -128.9 0 -997.0 -997.0 52.6 0 401 0 0 0 68.9 63.1 0.0
2026 08/28 22:30 46.2 99.1 238.0 10.5 30.19 64.7 0.0 13.01 -129.2 0 -997.0 -997.0 50.8 0 401 0 0 0 68.3 62.8 0.0
2026 08/28 22:45 44.8 100.3 272.9 14.4 30.18 64.7 0.0 13.00 -129.4 0 -997.0 -997.0 50.3 0 401 0 0 0 67.8 62.5 0.0
2026 08/28 23:00 44.4 100.2 275.4 11.8 30.18 64.5 0.0 13.00 -129.6 0 -1.1 45.2 50.8 0 401 0 0 0 67.4 62.4 0.0
2026 08/28 23:15 44.5 100.3 198.4 12.8 30.18 64.4 0.0 13.01 -129.9 0 -997.0 -997.0 51.2 0 401 0 0 0 67.2 62.2 0.0
2026 08/28 23:30 44.8 100.2 253.1 16.0 30.17 64.2 0.0 13.00 -130.3 0 -997.0 -997.0 51.4 0 401 0 0 0 66.8 62.0 0.0
2026 08/28 23:45 44.4 100.2 185.1 12.1 30.17 64.1 0.0 13.01 -130.5 0 -3.7 46.1 51.6 0 401 0 0 0 66.5 61.8 0.0
2026 08/29 00:00 44.5 100.3 251.6 14.8 30.17 63.9 0.0 13.01 -130.7 0 -2.1 45.2 51.2 0 401 0 0 0 66.0 61.7 0.0
2026 08/29 00:15 44.9 100.2 263.2 14.9 30.17 63.7 0.0 13.01 -131.0 0 -997.0 -997.0 51.4 0 401 0 0 0 66.0 61.5 0.0
2026 08/29 00:30 45.0 100.2 276.1 14.9 30.17 63.5 0.0 12.99 -131.2 0 -997.0 -997.0 52.5 0 401 0 0 0 65.7 61.4 0.0
2026 08/29 00:45 45.0 100.3 269.0 16.0 30.17 63.3 0.0 12.99 -131.5 0 -997.0 -997.0 52.3 0 401 0 0 0 65.6 61.3 0.0
2026 08/29 01:00 44.8 100.2 188.2 14.2 30.16 63.1 0.0 13.00 -131.7 0 -0.7 46.1 52.2 0 401 0 0 0 65.3 61.1 0.0
2026 08/29 01:15 44.8 100.2 235.2 14.7 30.16 62.9 0.0 13.00 -132.0 0 -997.0 -997.0 51.9 0 401 0 0 0 64.9 61.0 0.0
2026 08/29 01:30 44.5 100.2 223.7 18.6 30.15 62.7 0.0 13.00 -132.2 0 -1.4 46.1 51.2 0 401 0 0 0 64.6 60.9 0.0
2026 08/29 01:45 45.5 101.0 234.2 16.8 30.15 62.5 0.0 13.00 -132.5 0 -1.8 46.1 51.3 0 401 0 0 0 64.4 60.7 0.0
2026 08/29 02:00 44.3 100.2 229.3 21.3 30.14 62.3 0.0 12.99 -132.6 0 -997.0 -997.0 50.8 0 401 0 0 0 64.0 60.6 0.0
2026 08/29 02:15 44.4 100.2 142.7 18.2 30.14 62.1 0.0 13.00 -132.8 0 -997.0 -997.0 51.1 0 401 0 0 0 63.9 60.5 0.0
2026 08/29 02:30 44.1 100.2 207.8 17.1 30.14 61.9 0.0 13.00 -133.1 0 -1.1 46.1 51.0 0 401 0 0 0 63.7 60.4 0.0
2026 08/29 02:45 43.9 100.2 267.4 11.4 30.14 61.6 0.0 12.99 -133.2 0 -1.8 45.2 50.2 0 401 0 0 0 63.6 60.4 0.0
2026 08/29 03:00 43.7 100.2 254.7 13.8 30.13 61.4 0.0 13.00 -133.4 0 -0.7 45.2 50.3 0 401 0 0 0 63.5 60.3 0.0
2026 08/29 03:15 42.9 100.2 243.4 17.6 30.13 61.2 0.0 13.00 -133.6 0 -997.0 -997.0 50.2 0 401 0 0 0 63.5 60.2 0.0
2026 08/29 03:30 42.9 100.2 184.7 18.7 30.13 61.0 0.0 13.00 -133.7 0 -997.0 -997.0 50.3 0 401 0 0 0 63.2 60.1 0.0
2026 08/29 03:45 42.7 100.2 198.1 11.7 30.13 60.7 0.0 13.01 -133.9 0 -997.0 -997.0 50.7 0 401 0 0 0 63.0 60.0 0.0
2026 08/29 04:00 42.6 100.2 231.3 15.3 30.12 60.5 0.0 13.00 -134.0 0 -997.0 -997.0 50.6 0 401 0 0 0 62.8 59.9 0.0
2026 08/29 04:15 42.4 100.2 232.5 12.7 30.11 60.3 0.0 13.00 -134.2 0 -997.0 -997.0 50.3 0 401 0 0 0 62.7 59.9 0.0
2026 08/29 04:30 42.2 100.2 293.1 10.1 30.11 60.1 0.0 13.02 -134.3 0 -997.0 -997.0 49.4 0 401 0 0 0 62.3 59.7 0.0
2026 08/29 04:45 41.5 100.2 172.6 17.8 30.11 59.9 0.0 13.00 -134.4 0 -997.0 -997.0 49.5 0 401 0 0 0 62.3 59.5 0.0
2026 08/29 05:00 41.2 100.2 239.3 18.6 30.11 59.7 0.0 13.00 -134.7 0 -1.8 43.4 48.7 0 401 0 0 0 62.1 59.4 0.0
2026 08/29 05:15 41.0 100.2 253.4 13.3 30.10 59.5 0.0 13.01 -134.7 0 -997.0 -997.0 48.6 0 401 0 0 0 61.9 59.4 0.0
2026 08/29 05:30 39.9 100.2 257.5 21.5 30.10 59.2 0.0 12.99 -134.8 0 -997.0 -997.0 48.6 0 401 0 0 0 61.7 59.3 0.0
2026 08/29 05:45 39.4 100.2 217.3 12.8 30.10 59.0 0.0 12.99 -134.9 0 -0.2 41.6 48.0 0 401 0 0 0 61.5 59.2 0.0
2026 08/29 06:00 39.1 100.2 217.2 9.9 30.10 58.8 0.0 13.02 -135.0 0 -0.0 40.7 48.3 0 401 0 0 0 61.2 59.1 0.0
2026 08/29 06:15 38.5 100.2 245.1 12.7 30.10 58.5 6.1 12.99 -135.1 0 -997.0 -997.0 48.3 0 401 0 0 0 61.1 59.0 0.0
2026 08/29 06:30 39.3 101.0 221.0 13.7 30.11 58.3 32.6 13.01 -135.3 0 0.0 39.8 47.5 0 401 0 0 0 60.9 58.7 0.0
2026 08/29 06:45 37.8 100.2 249.9 8.1 30.11 58.1 70.9 12.99 -135.3 0 -0.0 39.8 46.2 0 401 0 0 0 60.9 58.6 0.0
2026 08/29 07:00 37.7 100.2 322.5 11.7 30.10 57.9 237.2 12.99 -135.4 0 -0.2 39.8 45.9 0 401 0 0 0 61.4 58.5 0.0
2026 08/29 07:15 37.3 100.2 87.9 16.0 30.10 57.6 324.0 13.00 -135.5 0 -997.0 -997.0 46.8 0 401 0 0 0 61.3 58.4 0.0
2026 08/29 07:30 37.3 100.2 147.8 16.1 30.10 57.4 334.2 13.01 -135.6 0 -997.0 -997.0 47.6 0 401 0 0 0 61.2 58.3 0.0
2026 08/29 07:45 37.7 100.2 171.0 18.7 30.09 57.3 415.6 13.00 -135.6 0 -0.0 40.7 47.1 0 401 0 0 0 61.4 58.0 0.0
2026 08/29 08:00 38.0 100.2 235.0 16.8 30.09 57.0 525.9 13.01 -135.8 0 -0.1 40.7 47.1 0 401 0 0 0 61.1 58.0 0.0
2026 08/29 08:15 37.9 100.2 251.0 14.9 30.10 56.9 512.6 13.00 -135.9 0 -997.0 -997.0 48.1 0 401 0 0 0 61.0 57.8 0.0
2026 08/29 08:30 38.3 100.2 295.4 13.2 30.10 56.7 425.8 13.02 -135.9 0 -997.0 -997.0 49.4 0 401 0 0 0 60.9 57.8 0.0
2026 08/29 08:45 38.5 100.2 249.7 11.7 30.11 56.5 521.5 13.02 -136.0 0 -0.1 42.5 50.2 0 401 0 0 0 60.6 57.7 0.0
2026 08/29 09:00 38.8 100.2 257.2 9.7 30.11 56.2 279.9 13.01 -136.0 0 -0.0 42.5 49.8 0 401 0 0 0 60.7 57.7 0.0
2026 08/29 09:15 38.7 100.2 193.2 14.8 30.11 56.1 340.3 13.00 -136.1 0 -0.0 42.5 49.7 0 401 0 0 0 60.7 57.7 0.0
2026 08/29 09:30 38.9 100.2 205.8 11.7 30.11 55.9 431.9 13.01 -136.1 0 -997.0 -997.0 50.2 0 401 0 0 0 60.6 57.7 0.0
2026 08/29 09:45 39.4 100.2 268.4 10.0 30.11 55.6 311.1 12.99 -136.2 0 -0.2 43.4 51.0 0 401 0 0 0 60.6 57.7 0.0
2026 08/29 10:00 39.3 100.2 242.2 11.5 30.11 55.4 490.9 13.02 -136.2 0 -0.2 44.3 51.4 0 401 0 0 0 60.6 57.6 0.0
2026 08/29 10:15 39.5 100.2 271.9 8.8 30.11 55.2 514.0 13.01 -136.4 0 -997.0 -997.0 50.3 0 401 0 0 0 60.9 57.6 0.0
2026 08/29 10:30 39.5 100.2 307.3 11.3 30.11 55.0 412.2 13.00 -136.4 0 -0.3 42.5 49.6 0 401 0 0 0 60.9 57.6 0.0
2026 08/29 10:45 39.8 100.2 286.9 6.8 30.12 55.0 425.1 12.99 -136.4 0 -997.0 -997.0 49.2 0 401 0 0 0 61.0 57.5 0.0
2026 08/29 11:00 39.4 100.2 295.6 11.8 30.12 54.8 475.3 13.01 -136.5 0 0.2 41.6 48.7 0 401 0 0 0 60.7 57.4 0.0
2026 08/29 11:15 41.2 101.0 256.7 9.8 30.12 54.6 352.5 13.01 -136.5 0 0.0 41.6 48.4 0 401 0 0 0 60.6 57.3 0.0
2026 08/29 11:30 39.4 100.2 147.4 10.4 30.12 54.4 419.0 13.01 -136.5 0 -997.0 -997.0 48.1 0 401 0 0 0 60.5 57.2 0.0
2026 08/29 11:45 39.1 100.2 306.4 14.7 30.12 54.4 465.8 13.01 -136.5 0 0.0 43.4 50.8 0 401 0 0 0 60.4 57.2 0.0
2026 08/29 12:00 40.1 100.2 250.2 10.5 30.12 54.1 505.9 13.01 -136.6 0 -0.1 44.3 52.6 0 401 0 0 0 60.4 57.2 0.0
2026 08/29 12:15 40.4 100.2 253.4 14.0 30.12 54.0 593.7 12.99 -136.6 0 -997.0 -997.0 52.9 0 401 0 0 0 60.9 57.4 0.0
2026 08/29 12:30 40.3 100.2 290.6 15.9 30.12 53.9 501.4 12.99 -136.6 0 -997.0 -997.0 53.1 0 401 0 0 0 61.8 57.5 0.0
2026 08/29 12:45 41.5 100.2 235.4 10.1 30.12 53.7 719.0 13.00 -136.6 0 0.3 47.9 54.8 0 401 0 0 0 62.1 57.6 0.0
2026 08/29 13:00 42.0 100.2 143.7 12.5 30.11 53.8 636.5 12.99 -136.7 0 -0.9 47.9 56.2 0 401 0 0 0 62.4 57.9 0.0
2026 08/29 13:15 41.1 100.2 254.5 13.7 30.12 53.5 576.5 13.01 -136.7 0 -997.0 -997.0 57.9 0 401 0 0 0 62.8 58.2 0.0
2026 08/29 13:30 42.8 97.1 204.6 18.1 30.12 53.5 699.2 13.01 -136.7 0 -0.2 50.6 58.0 0 401 0 0 0 63.5 58.6 0.0
2026 08/29 13:45 44.3 77.3 290.8 16.4 30.12 53.5 742.0 13.01 -136.7 0 -0.6 52.4 59.1 0 401 0 0 0 64.2 59.2 0.0
2026 08/29 14:00 46.1 72.3 236.6 13.5 30.12 53.3 744.0 13.01 -136.7 0 -0.5 55.1 61.5 0 401 0 0 0 65.0 59.9 0.0
2026 08/29 14:15 47.5 66.0 199.4 19.3 30.12 53.3 751.0 12.99 -136.7 0 -997.0 -997.0 60.7 0 401 0 0 0 65.6 60.2 0.0
2026 08/29 14:30 47.1 65.6 263.7 14.5 30.12 53.3 765.0 13.01 -136.7 0 -0.5 54.2 62.1 0 401 0 0 0 66.3 60.4 0.0
2026 08/29 14:45 48.3 62.5 262.6 12.2 30.12 53.3 765.0 13.01 -136.7 0 -0.7 56.0 63.9 0 401 0 0 0 66.7 61.0 0.0
2026 08/29 15:00 49.9 59.9 271.1 9.3 30.12 53.4 772.0 13.01 -136.7 0 -0.6 52.4 60.4 0 401 0 0 0 67.3 61.1 0.0
2026 08/29 15:15 50.9 61.5 299.3 9.1 30.12 53.3 668.7 13.00 -136.7 0 -997.0 -997.0 57.6 0 401 0 0 0 67.5 61.0 0.0
2026 08/29 15:30 47.6 65.1 290.3 16.2 30.11 53.3 588.7 12.99 -136.7 0 -0.3 51.5 57.9 0 401 0 0 0 67.3 60.9 0.0
2026 08/29 15:45 48.4 61.3 252.0 18.4 30.12 53.5 724.0 13.02 -136.7 0 -0.5 53.3 59.1 0 401 0 0 0 67.3 60.4 0.0
2026 08/29 16:00 50.4 59.6 344.8 6.1 30.11 53.5 720.0 13.00 -136.6 0 -997.0 -997.0 58.6 0 401 0 0 0 67.4 60.2 0.0
2026 08/29 16:15 49.4 61.7 299.6 11.9 30.11 53.6 703.0 12.99 -136.6 0 -997.0 -997.0 59.4 0 401 0 0 0 67.2 60.1 0.0
2026 08/29 16:30 48.8 65.8 259.8 16.1 30.12 53.7 604.6 13.02 -136.6 0 0.0 51.5 61.6 0 401 0 0 0 67.4 60.1 0.0
2026 08/29 16:45 48.9 65.9 310.1 16.0 30.12 53.9 710.0 13.00 -136.6 0 -0.2 51.5 61.6 0 401 0 0 0 67.8 59.9 0.0
2026 08/29 17:00 47.7 64.3 286.3 19.5 30.12 54.1 615.4 13.01 -136.5 0 0.2 50.6 62.8 0 401 0 0 0 67.8 59.7 0.0
2026 08/29 17:15 49.3 60.3 274.6 13.1 30.12 54.4 661.6 12.99 -136.5 0 0.0 52.4 65.7 0 401 0 0 0 68.1 59.6 0.0
2026 08/29 17:30 48.1 60.6 303.6 17.5 30.12 54.6 651.4 12.99 -136.4 0 -997.0 -997.0 70.1 0 401 0 0 0 68.3 59.5 0.0
2026 08/29 17:45 48.2 62.8 224.4 11.4 30.13 54.8 633.4 13.01 -136.4 0 -0.3 50.6 68.7 0 401 0 0 0 68.7 59.4 0.0
2026 08/29 18:00 47.5 64.0 19.8 13.3 30.13 55.0 605.3 13.01 -136.2 0 -0.7 50.6 61.5 0 401 0 0 0 69.0 59.3 0.0
2026 08/29 18:15 46.7 65.1 23.3 9.5 30.14 55.2 368.8 13.00 -136.1 0 -0.4 48.8 58.6 0 401 0 0 0 68.6 59.2 0.0
2026 08/29 18:30 45.9 66.6 106.3 9.4 30.14 55.4 422.1 13.00 -136.0 0 -0.4 48.8 56.7 0 401 0 0 0 68.4 59.1 0.0
2026 08/29 18:45 46.5 69.1 307.0 8.1 30.14 55.6 567.3 13.02 -136.0 0 -0.6 49.7 55.6 0 401 0 0 0 68.9 58.8 0.0
2026 08/29 19:00 46.5 71.2 277.7 8.7 30.14 55.9 500.8 13.01 -135.9 0 -0.6 49.7 54.0 0 401 0 0 0 68.4 58.6 0.0
2026 08/29 19:15 46.2 76.9 311.6 14.1 30.14 56.1 273.1 13.01 -135.8 0 -997.0 -997.0 53.4 0 401 0 0 0 68.0 58.4 0.0
2026 08/29 19:30 43.5 77.9 324.6 10.0 30.15 56.3 172.0 13.00 -135.8 0 -997.0 -997.0 52.2 0 401 0 0 0 67.4 58.2 0.0
2026 08/29 19:45 42.9 80.5 272.9 12.4 30.15 56.5 91.6 12.99 -135.6 0 -0.3 44.3 50.4 0 401 0 0 0 66.8 57.9 0.0
2026 08/29 20:00 43.5 84.8 291.7 9.8 30.15 56.5 21.0 13.02 -135.6 0 0.2 43.4 49.2 0 401 0 0 0 66.1 57.7 0.0
2026 08/29 20:15 41.8 86.9 302.6 12.6 30.15 56.7 2.0 13.01 -135.6 0 -997.0 -997.0 48.6 0 401 0 0 0 65.8 57.6 0.0
2026 08/29 20:30 41.5 88.2 318.5 11.9 30.15 56.7 0.0 12.99 -135.6 0 -0.7 42.5 47.6 0 401 0 0 0 65.3 57.4 0.0
2026 08/29 20:45 41.3 90.9 305.4 15.3 30.15 56.9 0.0 13.01 -135.6 0 -0.6 42.5 47.9 0 401 0 0 0 64.8 57.0 0.0
2026 08/29 21:00 41.1 92.6 306.0 16.8 30.16 56.9 0.0 13.01 -135.6 0 -0.0 41.6 47.6 0 401 0 0 0 64.4 56.8 0.0
2026 08/29 21:15 40.9 100.2 292.6 13.5 30.16 56.9 0.0 13.00 -135.6 0 -997.0 -997.0 47.6 0 401 0 0 0 63.7 56.7 0.0
2026 08/29 21:30 40.7 100.2 301.8 16.8 30.16 56.9 0.0 12.99 -135.6 0 -997.0 -997.0 47.4 0 401 0 0 0 63.1 56.5 0.0
2026 08/29 21:45 40.6 100.2 313.0 18.5 30.16 56.7 0.0 13.01 -135.8 0 -0.5 42.5 46.9 0 401 0 0 0 62.7 56.2 0.0
2026 08/29 22:00 40.2 100.2 326.7 15.7 30.16 56.7 0.0 13.01 -135.8 0 -997.0 -997.0 46.6 0 401 0 0 0 61.9 56.0 0.0
2026 08/29 22:15 40.1 100.2 315.4 16.9 30.16 56.7 0.0 13.01 -135.8 0 -997.0 -997.0 46.2 0 401 0 0 0 61.5 55.9 0.0
2026 08/29 22:30 40.1 100.2 332.4 15.9 30.15 56.5 0.0 12.99 -135.9 0 -997.0 -997.0 46.6 0 401 0 0 0 61.0 55.7 0.0
2026 08/29 22:45 40.1 100.2 331.4 14.8 30.15 56.5 0.0 13.00 -135.9 0 -0.2 40.7 46.1 0 401 0 0 0 60.4 55.5 0.0
2026 08/29 23:00 40.1 100.2 324.8 16.7 30.14 56.3 0.0 13.01 -136.0 0 -0.3 40.7 45.4 0 401 0 0 0 60.1 55.4 0.0
2026 08/29 23:15 40.0 100.2 323.6 15.2 30.14 56.1 0.0 13.01 -136.0 0 -997.0 -997.0 45.1 0 401 0 0 0 59.9 55.2 0.0
2026 08/29 23:30 39.8 100.2 312.5 14.6 30.14 56.0 0.0 13.00 -136.1 0 -997.0 -997.0 44.8 0 401 0 0 0 59.4 55.0 0.0
2026 08/29 23:45 39.6 100.2 328.0 12.2 30.14 55.9 0.0 13.01 -136.1 0 -997.0 -997.0 44.3 0 401 0 0 0 59.1 54.8 0.0
2026 08/30 00:00 39.6 100.2 329.9 12.4 30.14 55.6 0.0 13.01 -136.2 0 -997.0 -997.0 44.0 0 401 0 0 0 58.8 54.6 0.0
2026 08/30 00:15 40.6 100.2 313.7 11.4 30.14 55.4 0.0 13.01 -136.2 0 -997.0 -997.0 43.6 0 401 0 0 0 58.6 54.6 0.0
2026 08/30 00:30 39.8 100.2 313.1 11.3 30.13 55.2 0.0 13.01 -136.2 0 -997.0 -997.0 43.5 0 401 0 0 0 57.9 54.2 0.0
2026 08/30 00:45 40.0 100.2 312.3 11.8 30.13 55.1 0.0 13.00 -136.4 0 -997.0 -997.0 43.3 0 401 0 0 0 57.6 54.0 0.0
2026 08/30 01:00 40.2 98.7 309.3 12.9 30.13 55.0 0.0 13.00 -136.4 0 -0.9 38.9 43.0 0 401 0 0 0 57.2 53.9 0.0
2026 08/30 01:15 40.2 96.6 311.8 14.5 30.12 54.8 0.0 13.02 -136.5 0 -997.0 -997.0 43.0 0 401 0 0 0 57.2 53.9 0.0
2026 08/30 01:30 40.5 93.2 314.3 13.1 30.12 54.6 0.0 12.99 -136.5 0 -997.0 -997.0 43.0 0 401 0 0 0 56.7 53.5 0.0
2026 08/30 01:45 40.4 92.4 308.1 10.9 30.12 54.4 0.0 12.99 -136.6 0 -997.0 -997.0 43.2 0 401 0 0 0 56.5 53.3 0.0
2026 08/30 02:00 40.5 91.1 294.3 11.1 30.12 54.2 0.0 12.99 -136.6 0 -0.6 38.9 43.0 0 401 0 0 0 56.1 53.1 0.0
2026 08/30 02:15 40.5 90.5 318.2 14.9 30.11 54.0 0.0 13.01 -136.6 0 -997.0 -997.0 43.2 0 401 0 0 0 55.9 53.0 0.0
2026 08/30 02:30 40.3 90.9 276.0 12.4 30.11 53.7 0.0 13.02 -136.7 0 -1.4 38.9 42.4 0 401 0 0 0 55.6 52.8 0.0
2026 08/30 02:45 40.4 90.1 304.1 12.9 30.11 53.6 0.0 12.99 -136.7 0 -0.3 38.9 40.7 0 401 0 0 0 55.1 52.5 0.0
2026 08/30 03:00 40.7 88.7 323.3 15.3 30.10 53.3 0.0 13.01 -136.7 0 -997.0 -997.0 41.6 0 401 0 0 0 54.8 52.4 0.0
2026 08/30 03:15 40.6 89.0 316.5 13.2 30.10 53.1 0.0 13.01 -136.9 0 -997.0 -997.0 42.2 0 401 0 0 0 54.8 52.2 0.0
2026 08/30 03:30 41.0 86.0 322.5 13.2 30.09 52.9 0.0 13.00 -136.9 0 -997.0 -997.0 40.8 0 401 0 0 0 54.5 52.1 0.0
2026 08/30 03:45 40.9 86.5 322.5 13.9 30.09 52.7 0.0 13.01 -136.9 0 0.4 39.8 40.4 0 401 0 0 0 54.0 51.9 0.0
2026 08/30 04:00 40.6 86.5 324.8 13.4 30.09 52.6 0.0 13.01 -137.0 0 -0.5 38.9 38.6 0 401 0 0 0 53.5 51.6 0.0
2026 08/30 04:15 40.9 84.6 323.9 12.6 30.09 52.4 0.0 13.01 -137.0 0 -997.0 -997.0 37.8 0 401 0 0 0 53.3 51.4 0.0
2026 08/30 04:30 40.8 84.5 324.9 11.7 30.09 52.1 0.0 13.03 -137.0 0 -997.0 -997.0 37.0 0 401 0 0 0 52.9 51.2 0.0
2026 08/30 04:45 40.9 84.6 325.5 12.5 30.08 51.9 0.0 12.99 -137.0 0 0.2 39.8 36.2 0 401 0 0 0 52.5 51.0 0.0
2026 08/30 05:00 40.5 85.7 322.0 9.5 30.08 51.8 0.0 13.02 -137.1 0 0.2 39.8 35.0 0 401 0 0 0 52.3 50.9 0.0
2026 08/30 05:15 40.5 86.6 313.7 10.1 30.08 51.6 0.0 12.99 -137.1 0 -997.0 -997.0 34.3 0 401 0 0 0 52.0 50.6 0.0
2026 08/30 05:30 40.4 87.1 316.1 9.9 30.08 51.5 0.0 13.01 -137.1 0 0.2 39.8 34.1 0 401 0 0 0 51.6 50.4 0.0
2026 08/30 05:45 40.4 86.5 320.6 11.8 30.08 51.2 0.0 13.01 -137.1 0 0.2 38.9 33.4 0 401 0 0 0 51.4 50.3 0.0
2026 08/30 06:00 40.3 84.9 326.7 12.1 30.08 51.0 0.7 13.00 -137.2 0 -0.5 38.9 32.6 0 401 0 0 0 51.0 50.1 0.0
2026 08/30 06:15 40.9 72.3 332.5 8.8 30.08 50.8 9.5 13.00 -137.1 0 -997.0 -997.0 32.1 0 401 0 0 0 50.9 49.8 0.0
2026 08/30 06:30 41.1 65.6 323.2 10.7 30.07 50.6 62.4 13.02 -137.1 0 -997.0 -997.0 31.5 0 401 0 0 0 50.5 49.6 0.0
2026 08/30 06:45 41.5 58.7 335.1 10.4 30.07 50.4 173.4 12.99 -137.2 0 -997.0 -997.0 31.4 0 401 0 0 0 50.3 49.5 0.0
2026 08/30 07:00 42.1 50.8 313.3 9.9 30.07 50.2 281.3 13.00 -137.2 0 -997.0 -997.0 31.4 0 401 0 0 0 50.5 49.3 0.0
2026 08/30 07:15 42.3 49.8 324.2 5.4 30.08 50.0 362.1 12.99 -137.2 0 -997.0 -997.0 32.1 0 401 0 0 0 50.3 49.2 0.0
2026 08/30 07:30 42.3 52.9 337.2 7.5 30.08 49.8 432.0 12.98 -137.2 0 -997.0 -997.0 34.1 0 401 0 0 0 50.4 48.9 0.0
2026 08/30 07:45 42.2 57.9 351.7 4.0 30.08 49.7 440.1 12.99 -137.2 0 -0.4 44.3 35.3 0 401 0 0 0 50.0 48.8 0.0
2026 08/30 08:00 43.0 47.2 325.5 3.1 30.09 49.5 508.7 13.00 -137.2 0 -0.2 44.3 37.1 0 401 0 0 0 50.1 48.7 0.0
2026 08/30 08:15 45.1 56.9 151.6 1.4 30.08 49.3 518.2 13.01 -137.2 0 -997.0 -997.0 39.0 0 401 0 0 0 50.3 48.6 0.0
2026 08/30 08:30 47.2 55.6 75.6 3.2 30.08 49.2 565.7 13.01 -137.4 0 -997.0 -997.0 42.6 0 401 0 0 0 50.3 48.7 0.0
2026 08/30 08:45 44.8 58.0 28.5 2.8 30.08 49.1 586.4 13.00 -137.4 0 -997.0 -997.0 45.4 0 401 0 0 0 51.0 48.8 0.0
2026 08/30 09:00 47.7 49.3 120.4 2.7 30.08 48.9 610.8 13.01 -137.4 0 -997.0 -997.0 46.7 0 401 0 0 0 51.5 49.2 0.0
2026 08/30 09:15 48.3 59.4 56.5 2.5 30.08 48.8 628.8 12.98 -137.4 0 -997.0 -997.0 47.7 0 401 0 0 0 51.9 49.4 0.0
2026 08/30 09:30 50.6 50.3 41.5 2.2 30.07 48.7 626.1 13.02 -137.4 0 -0.1 51.5 49.3 0 401 0 0 0 52.5 50.2 0.0
2026 08/30 09:45 50.0 46.1 9.3 2.8 30.07 48.5 653.3 13.02 -137.4 0 -0.1 51.5 51.1 0 401 0 0 0 53.8 51.3 0.0
2026 08/30 10:00 52.0 47.2 11.4 3.2 30.07 48.5 682.1 13.01 -137.4 0 0.0 53.3 53.1 0 401 0 0 0 55.1 52.7 0.0
2026 08/30 10:15 52.2 39.6 23.1 4.1 30.07 48.5 688.5 13.00 -137.4 0 -997.0 -997.0 54.1 0 401 0 0 0 56.2 53.5 0.0
2026 08/30 10:30 53.0 47.3 82.5 2.7 30.08 48.5 695.7 13.01 -137.4 0 -997.0 -997.0 55.8 0 401 0 0 0 57.7 54.8 0.0
2026 08/30 10:45 52.4 50.0 34.4 3.3 30.08 48.5 696.7 13.02 -137.4 0 -0.1 56.9 57.1 0 401 0 0 0 59.3 56.0 0.0
2026 08/30 11:00 54.6 47.4 48.8 5.9 30.08 48.4 709.0 13.02 -137.4 0 -0.7 57.8 57.5 0 401 0 0 0 60.4 56.9 0.0
2026 08/30 11:15 56.0 47.9 102.8 4.4 30.08 48.4 728.0 12.99 -137.4 0 -997.0 -997.0 57.8 0 401 0 0 0 61.8 58.2 0.0
2026 08/30 11:30 53.5 46.7 84.7 2.4 30.09 48.5 733.0 12.99 -137.4 0 -997.0 -997.0 58.8 0 401 0 0 0 63.2 59.4 0.0
2026 08/30 11:45 53.8 41.8 305.7 5.5 30.09 48.5 736.0 13.00 -137.4 0 -997.0 -997.0 60.5 0 401 0 0 0 64.7 60.3 0.0
2026 08/30 12:00 54.0 40.4 325.1 7.9 30.09 48.6 733.0 13.00 -137.4 0 -0.1 59.6 61.1 0 401 0 0 0 66.0 61.2 0.0
2026 08/30 12:15 54.6 37.3 293.3 6.2 30.09 48.7 721.0 13.00 -137.4 0 -997.0 -997.0 62.3 0 401 0 0 0 67.2 61.7 0.0
2026 08/30 12:30 55.0 34.1 305.4 8.9 30.09 48.7 693.6 13.02 -137.4 0 -997.0 -997.0 62.8 0 401 0 0 0 68.4 62.4 0.0
2026 08/30 12:45 56.0 33.3 284.2 2.6 30.09 48.9 683.5 12.99 -137.4 0 0.2 60.5 63.3 0 401 0 0 0 69.5 63.1 0.0
2026 08/30 13:00 56.5 30.2 308.5 8.9 30.09 49.1 711.0 12.99 -137.4 0 -997.0 -997.0 64.7 0 401 0 0 0 70.5 63.7 0.0
2026 08/30 13:15 57.6 22.9 297.3 8.7 30.09 49.2 725.0 13.01 -137.4 0 -997.0 -997.0 65.7 0 401 0 0 0 71.3 63.9 0.0
2026 08/30 13:30 58.6 19.4 269.2 6.2 30.09 49.4 717.0 13.01 -137.2 0 -997.0 -997.0 66.5 0 401 0 0 0 72.5 64.4 0.0
2026 08/30 13:45 59.3 18.0 294.6 6.9 30.10 49.5 717.0 13.00 -137.2 0 -0.4 65.9 67.8 0 401 0 0 0 73.2 64.7 0.0
2026 08/30 14:00 59.1 19.2 298.4 9.5 30.10 49.8 725.0 13.00 -137.2 0 -997.0 -997.0 68.2 0 401 0 0 0 73.9 65.0 0.0
2026 08/30 14:15 61.4 19.2 348.4 7.9 30.10 50.0 736.0 12.99 -137.2 0 -997.0 -997.0 68.8 0 401 0 0 0 74.4 65.1 0.0
2026 08/30 14:30 59.3 22.1 317.7 10.9 30.10 50.2 743.0 13.01 -137.2 0 0.6 66.8 70.9 0 401 0 0 0 74.8 65.5 0.0
2026 08/30 14:45 60.9 24.2 295.7 7.3 30.10 50.6 746.0 12.99 -137.1 0 -0.4 66.8 70.5 0 401 0 0 0 75.0 65.5 0.0
2026 08/30 15:00 61.8 24.5 319.7 11.4 30.10 50.8 744.0 13.00 -137.1 0 0.1 66.8 71.1 0 401 0 0 0 75.1 65.5 0.0
2026 08/30 15:15 62.3 25.0 344.8 7.4 30.10 51.0 736.0 13.00 -137.1 0 -997.0 -997.0 70.8 0 401 0 0 0 75.0 65.5 0.0
2026 08/30 15:30 61.6 23.9 327.7 7.7 30.10 51.4 729.0 12.99 -137.0 0 -997.0 -997.0 71.9 0 401 0 0 0 75.0 65.3 0.0
2026 08/30 15:45 61.3 29.9 276.3 7.2 30.10 51.7 717.0 12.98 -137.0 0 0.1 66.8 74.2 0 401 0 0 0 75.1 65.0 0.0
2026 08/30 16:00 61.5 29.9 307.7 10.1 30.10 51.9 718.0 12.99 -136.9 0 -0.9 67.7 73.3 0 401 0 0 0 75.3 64.9 0.0
2026 08/30 16:15 64.7 29.4 301.6 10.8 30.10 52.3 706.0 13.01 -136.9 0 -997.0 -997.0 75.4 0 401 0 0 0 75.3 65.0 0.0
2026 08/30 16:30 62.6 28.4 308.1 10.5 30.10 52.7 703.0 12.99 -136.7 0 -997.0 -997.0 76.2 0 401 0 0 0 75.4 64.9 0.0
2026 08/30 16:45 62.7 29.0 310.8 8.6 30.10 53.1 686.7 13.00 -136.7 0 -0.3 66.8 74.2 0 401 0 0 0 75.8 64.8 0.0
2026 08/30 17:00 61.9 27.9 297.5 7.9 30.10 53.5 667.4 12.99 -136.6 0 -997.0 -997.0 81.3 0 401 0 0 0 76.2 64.7 0.0
2026 08/30 17:15 62.8 29.1 344.9 8.8 30.10 53.8 651.1 13.02 -136.5 0 -997.0 -997.0 79.3 0 401 0 0 0 76.6 64.6 0.0
2026 08/30 17:30 63.1 30.3 23.6 9.3 30.11 54.4 638.5 13.01 -136.4 0 -997.0 -997.0 81.6 0 401 0 0 0 76.8 64.4 0.0
2026 08/30 17:45 63.0 29.6 311.4 10.5 30.11 54.8 629.0 13.02 -136.1 0 -997.0 -997.0 83.1 0 401 0 0 0 77.2 64.2 0.0
2026 08/30 18:00 62.7 34.2 316.9 9.7 30.11 55.2 617.5 13.01 -136.0 0 -0.4 65.0 73.5 0 401 0 0 0 77.3 64.0 0.0
2026 08/30 18:15 61.3 36.7 305.7 12.5 30.12 55.6 609.3 13.01 -135.9 0 -997.0 -997.0 69.4 0 401 0 0 0 77.2 63.9 0.0
2026 08/30 18:30 59.5 42.3 325.4 14.2 30.12 56.1 581.5 13.01 -135.6 0 -997.0 -997.0 67.2 0 401 0 0 0 76.8 63.7 0.0
2026 08/30 18:45 59.4 42.7 322.0 12.4 30.12 56.5 505.2 13.00 -135.4 0 -997.0 -997.0 65.8 0 401 0 0 0 76.4 63.6 0.0
2026 08/30 19:00 58.8 44.1 325.5 13.4 30.12 56.9 488.2 13.01 -135.1 0 -1.2 63.2 64.6 0 401 0 0 0 75.8 63.2 0.0
2026 08/30 19:15 59.8 46.6 321.0 12.0 30.13 57.4 366.4 13.02 -134.9 0 -997.0 -997.0 63.3 0 401 0 0 0 75.4 63.1 0.0
2026 08/30 19:30 57.3 49.3 316.9 8.6 30.13 57.9 230.0 13.00 -134.7 0 -997.0 -997.0 62.2 0 401 0 0 0 74.7 62.8 0.0
2026 08/30 19:45 56.7 51.4 316.9 7.4 30.14 58.2 119.4 13.00 -134.4 0 -0.4 56.9 60.9 0 401 0 0 0 73.8 62.4 0.0
2026 08/30 20:00 56.2 51.6 0.2 5.3 30.15 58.6 20.4 13.00 -134.2 0 -0.5 56.0 58.8 0 401 0 0 0 72.9 62.0 0.0
2026 08/30 20:15 58.2 45.4 77.5 12.4 30.15 59.1 1.4 13.00 -133.9 0 -997.0 -997.0 57.7 0 401 0 0 0 72.1 61.8 0.0
2026 08/30 20:30 57.0 43.0 80.3 15.3 30.15 59.3 0.0 13.01 -133.8 0 -997.0 -997.0 56.7 0 401 0 0 0 71.3 61.4 0.0
2026 08/30 20:45 56.2 44.6 76.6 18.6 30.15 59.6 0.0 13.00 -133.7 0 -0.6 55.1 55.3 0 401 0 0 0 70.3 61.0 0.0
2026 08/30 21:00 56.0 46.8 73.4 23.6 30.15 59.9 0.0 12.98 -133.6 0 -997.0 -997.0 54.1 0 401 0 0 0 69.5 60.6 0.0
2026 08/30 21:15 57.1 50.8 74.3 24.2 30.16 60.1 0.0 13.00 -133.4 0 -997.0 -997.0 53.5 0 401 0 0 0 68.9 60.3 0.0
2026 08/30 21:30 55.5 51.0 76.5 24.9 30.16 60.2 0.0 13.00 -133.3 0 -997.0 -997.0 54.6 0 401 0 0 0 68.3 60.0 0.0
2026 08/30 21:45 55.5 51.9 74.0 25.4 30.16 60.4 0.0 13.01 -133.3 0 -0.6 54.2 55.2 0 401 0 0 0 67.5 59.6 0.0
2026 08/30 22:00 55.6 51.5 88.7 25.5 30.16 60.4 0.0 13.01 -133.2 0 -0.5 54.2 55.9 0 401 0 0 0 66.9 59.4 0.0
2026 08/30 22:15 56.2 54.8 91.0 26.4 30.16 60.6 0.0 13.00 -133.2 0 -997.0 -997.0 56.1 0 401 0 0 0 66.5 59.1 0.0
2026 08/30 22:30 54.9 54.0 84.9 24.9 30.15 60.6 0.0 13.01 -133.2 0 -997.0 -997.0 55.7 0 401 0 0 0 65.8 59.0 0.0
2026 08/30 22:45 54.4 55.8 79.0 25.2 30.15 60.6 0.0 12.98 -133.2 0 -0.1 54.2 55.9 0 401 0 0 0 65.5 58.7 0.0
2026 08/30 23:00 54.7 52.9 91.0 27.4 30.15 60.6 0.0 13.01 -133.3 0 -1.3 53.3 55.6 0 401 0 0 0 64.9 58.5 0.0
2026 08/30 23:15 54.4 52.3 93.7 22.7 30.15 60.6 0.0 12.99 -133.3 0 -997.0 -997.0 55.1 0 401 0 0 0 64.5 58.3 0.0
2026 08/30 23:30 54.7 49.9 99.3 23.2 30.15 60.6 0.0 12.98 -133.4 0 -997.0 -997.0 54.6 0 401 0 0 0 64.0 58.0 0.0
2026 08/30 23:45 54.7 49.1 106.0 18.5 30.14 60.6 0.0 13.01 -133.4 0 -0.7 53.3 54.2 0 401 0 0 0 63.6 57.8 0.0
2026 08/31 00:00 54.7 49.1 113.4 19.8 30.13 60.5 0.0 13.01 -133.6 0 -997.0 -997.0 54.0 0 401 0 0 0 63.1 57.7 0.0
2026 08/31 00:15 54.4 48.8 104.1 20.2 30.13 60.4 0.0 13.00 -133.6 0 -997.0 -997.0 53.8 0 401 0 0 0 62.9 57.5 0.0
2026 08/31 00:30 54.3 48.6 100.7 20.4 30.13 60.4 0.0 13.00 -133.7 0 -997.0 -997.0 53.3 0 401 0 0 0 62.4 57.3 0.0
2026 08/31 00:45 54.2 48.3 98.5 20.4 30.13 60.3 0.0 13.01 -133.8 0 -997.0 -997.0 52.1 0 401 0 0 0 62.0 57.0 0.0
2026 08/31 01:00 55.8 48.9 104.6 24.4 30.12 60.1 0.0 12.99 -133.8 0 -997.0 -997.0 52.6 0 401 0 0 0 61.3 56.8 0.0
2026 08/31 01:15 53.9 48.4 103.6 21.3 30.11 60.1 0.0 13.00 -133.9 0 -997.0 -997.0 52.8 0 401 0 0 0 61.1 56.7 0.0
2026 08/31 01:30 53.8 47.6 104.4 18.9 30.11 59.9 0.0 12.99 -134.0 0 -997.0 -997.0 52.2 0 401 0 0 0 60.7 56.5 0.0
2026 08/31 01:45 53.8 48.4 104.9 20.0 30.11 59.9 0.0 13.02 -134.0 0 -0.5 52.4 52.4 0 401 0 0 0 60.4 56.2 0.0
2026 08/31 02:00 53.4 48.7 102.6 22.1 30.10 59.7 0.0 13.00 -134.2 0 -0.6 52.4 52.2 0 401 0 0 0 60.2 56.1 0.0
2026 08/31 02:15 53.6 47.7 97.6 24.4 30.10 59.7 0.0 13.01 -134.3 0 -997.0 -997.0 52.3 0 401 0 0 0 60.0 55.9 0.0
2026 08/31 02:30 53.1 50.0 101.7 24.5 30.09 59.5 0.0 12.99 -134.3 0 -997.0 -997.0 52.9 0 401 0 0 0 59.5 55.8 0.0
2026 08/31 02:45 53.1 48.2 98.8 21.5 30.08 59.5 0.0 13.01 -134.4 0 -997.0 -997.0 53.1 0 401 0 0 0 59.2 55.6 0.0
2026 08/31 03:00 52.7 50.4 101.8 23.3 30.08 59.3 0.0 13.01 -134.5 0 -0.5 51.5 52.9 0 401 0 0 0 58.8 55.5 0.0
2026 08/31 03:15 52.7 49.1 105.5 18.7 30.07 59.1 0.0 13.00 -134.7 0 -997.0 -997.0 53.0 0 401 0 0 0 58.6 55.4 0.0
2026 08/31 03:30 54.4 46.9 102.6 18.2 30.07 59.1 0.0 13.03 -134.7 0 -997.0 -997.0 53.0 0 401 0 0 0 58.3 55.1 0.0
2026 08/31 03:45 53.1 47.0 98.3 24.2 30.07 58.9 0.0 13.01 -134.8 0 -1.0 52.4 52.8 0 401 0 0 0 57.8 54.9 0.0
2026 08/31 04:00 53.2 45.8 103.1 22.5 30.06 58.9 0.0 13.01 -134.9 0 -0.1 51.5 53.0 0 401 0 0 0 57.5 54.8 0.0
2026 08/31 04:15 52.7 47.7 102.9 21.1 30.06 58.6 0.0 13.00 -134.9 0 -997.0 -997.0 52.9 0 401 0 0 0 57.2 54.7 0.0
2026 08/31 04:30 53.0 46.6 103.3 21.6 30.06 58.5 0.0 12.99 -135.0 0 -0.5 51.5 52.9 0 401 0 0 0 56.9 54.6 0.0
2026 08/31 04:45 53.2 45.2 96.0 26.8 30.05 58.4 0.0 12.99 -135.1 0 -997.0 -997.0 52.9 0 401 0 0 0 56.6 54.3 0.0
2026 08/31 05:00 53.2 45.1 101.6 23.1 30.05 58.2 0.0 13.01 -135.1 0 -0.5 51.5 52.8 0 401 0 0 0 56.4 54.2 0.0
2026 08/31 05:15 53.3 45.1 104.2 22.6 30.05 58.1 0.0 13.01 -135.3 0 -997.0 -997.0 52.5 0 401 0 0 0 56.1 54.1 0.0
2026 08/31 05:30 53.3 44.4 133.8 19.3 30.05 58.0 0.0 13.00 -135.3 0 -997.0 -997.0 52.2 0 401 0 0 0 55.9 54.0 0.0
2026 08/31 05:45 53.8 42.8 111.8 21.3 30.04 57.8 0.0 13.00 -135.4 0 -0.3 51.5 51.9 0 401 0 0 0 55.6 53.8 0.0
2026 08/31 06:00 55.0 43.2 98.2 25.1 30.03 57.7 0.7 12.99 -135.4 0 -997.0 -997.0 52.0 0 401 0 0 0 55.5 53.7 0.0
2026 08/31 06:15 53.7 42.1 98.9 23.8 30.03 57.6 10.9 12.99 -135.5 0 -997.0 -997.0 52.4 0 401 0 0 0 55.2 53.5 0.0
2026 08/31 06:30 54.0 40.4 91.4 23.1 30.03 57.4 64.5 12.99 -135.5 0 -997.0 -997.0 52.4 0 401 0 0 0 55.0 53.4 0.0
2026 08/31 06:45 54.7 38.8 105.6 23.9 30.02 57.4 179.5 12.99 -135.6 0 -0.7 52.4 52.6 0 401 0 0 0 54.7 53.3 0.0
2026 08/31 07:00 54.5 36.9 99.1 20.7 30.02 57.1 289.4 13.02 -135.6 0 -997.0 -997.0 53.1 0 401 0 0 0 54.6 53.2 0.0
2026 08/31 07:15 54.3 37.5 109.8 18.6 30.02 57.1 368.1 13.02 -135.6 0 -997.0 -997.0 53.4 0 401 0 0 0 54.5 53.1 0.0
2026 08/31 07:30 54.4 38.3 108.9 20.2 30.02 56.9 427.1 13.01 -135.8 0 -997.0 -997.0 54.1 0 401 0 0 0 54.5 53.0 0.0
2026 08/31 07:45 54.2 38.4 97.8 23.4 30.03 56.8 470.2 12.99 -135.8 0 -0.4 53.3 54.7 0 401 0 0 0 54.3 53.0 0.0
2026 08/31 08:00 53.3 41.3 97.9 23.2 30.03 56.7 503.8 13.01 -135.9 0 -0.7 53.3 55.2 0 401 0 0 0 54.6 52.9 0.0
2026 08/31 08:15 52.7 44.1 91.3 20.5 30.03 56.7 535.0 12.99 -135.9 0 -997.0 -997.0 55.7 0 401 0 0 0 55.0 53.0 0.0
2026 08/31 08:30 53.8 42.4 101.8 16.1 30.03 56.5 568.6 13.00 -135.9 0 -997.0 -997.0 56.5 0 401 0 0 0 55.6 53.1 0.0
2026 08/31 08:45 54.4 41.6 87.6 17.3 30.03 56.5 596.4 13.00 -135.9 0 -0.7 57.8 57.3 0 401 0 0 0 56.2 53.4 0.0
2026 08/31 09:00 54.8 40.3 94.0 17.9 30.03 56.5 612.0 13.00 -135.9 0 -0.2 57.8 58.2 0 401 0 0 0 57.2 54.0 0.0
2026 08/31 09:15 54.8 40.4 110.5 18.8 30.04 56.3 624.3 12.99 -136.0 0 -997.0 -997.0 58.9 0 401 0 0 0 57.7 54.5 0.0
2026 08/31 09:30 55.4 40.0 98.2 16.9 30.03 56.3 641.2 13.00 -136.0 0 -997.0 -997.0 60.0 0 401 0 0 0 58.4 55.7 0.0
2026 08/31 09:45 55.5 43.6 81.9 17.3 30.02 56.3 657.8 12.99 -136.0 0 -0.2 60.5 60.6 0 401 0 0 0 59.5 57.2 0.0
2026 08/31 10:00 58.0 43.8 107.3 15.7 30.02 56.3 674.5 13.01 -136.0 0 -0.6 60.5 61.5 0 401 0 0 0 60.9 58.6 0.0
2026 08/31 10:15 55.3 44.5 107.0 19.8 30.02 56.2 688.0 13.01 -136.0 0 -997.0 -997.0 62.5 0 401 0 0 0 61.8 59.9 0.0
2026 08/31 10:30 56.4 42.5 91.5 18.6 30.03 56.2 701.0 13.01 -136.0 0 -997.0 -997.0 63.2 0 401 0 0 0 63.1 61.1 0.0
2026 08/31 10:45 57.0 40.5 82.9 14.9 30.03 56.2 711.0 13.00 -136.0 0 0.0 61.4 64.0 0 401 0 0 0 64.5 62.3 0.0
2026 08/31 11:00 57.6 39.5 86.5 16.0 30.02 56.2 720.0 13.00 -136.0 0 -0.1 65.9 65.4 0 401 0 0 0 65.8 63.7 0.0
2026 08/31 11:15 58.4 37.8 85.0 18.0 30.02 56.3 728.0 13.02 -136.0 0 -997.0 -997.0 65.9 0 401 0 0 0 66.8 64.6 0.0
2026 08/31 11:30 59.3 36.7 93.5 15.4 30.03 56.3 732.0 13.01 -136.0 0 -0.5 65.0 66.9 0 401 0 0 0 68.2 65.7 0.0
2026 08/31 11:45 61.0 37.0 79.6 18.1 30.02 56.3 736.0 13.03 -135.9 0 0.1 66.8 67.8 0 401 0 0 0 69.5 66.6 0.0
2026 08/31 12:00 60.3 34.9 98.9 15.2 30.02 56.3 733.0 12.99 -135.9 0 -0.6 66.8 68.5 0 401 0 0 0 70.5 67.7 0.0
2026 08/31 12:15 61.0 35.6 82.0 14.7 30.01 56.5 721.0 13.01 -135.9 0 -997.0 -997.0 69.7 0 401 0 0 0 71.3 68.4 0.0
2026 08/31 12:30 61.4 36.2 67.1 15.4 30.01 56.5 693.1 12.99 -135.9 0 -0.1 67.7 70.6 0 401 0 0 0 72.3 69.4 0.0
2026 08/31 12:45 62.0 36.4 97.8 15.4 30.01 56.7 685.3 13.01 -135.8 0 0.2 68.6 72.7 0 401 0 0 0 73.4 70.2 0.0
2026 08/31 13:00 62.0 37.4 106.6 17.6 30.01 56.7 713.0 13.01 -135.8 0 -0.1 69.5 72.7 0 401 0 0 0 74.4 70.8 0.0
2026 08/31 13:15 63.3 35.0 103.0 14.5 30.01 56.9 725.0 12.99 -135.8 0 -997.0 -997.0 74.0 0 401 0 0 0 75.0 71.3 0.0
2026 08/31 13:30 63.6 35.5 105.1 15.1 30.01 57.1 718.0 13.00 -135.6 0 -997.0 -997.0 74.8 0 401 0 0 0 75.9 71.7 0.0
2026 08/31 13:45 64.4 34.5 126.6 11.3 30.01 57.1 719.0 13.00 -135.5 0 -1.0 72.2 76.5 0 401 0 0 0 76.7 72.1 0.0
2026 08/31 14:00 65.0 33.4 84.4 13.8 30.01 57.4 726.0 13.01 -135.5 0 -0.5 73.1 77.4 0 401 0 0 0 77.5 72.5 0.0
2026 08/31 14:15 66.3 32.0 84.0 13.9 30.01 57.6 738.0 13.01 -135.4 0 -997.0 -997.0 78.0 0 401 0 0 0 78.1 72.7 0.0
2026 08/31 14:30 67.1 30.2 75.2 9.7 30.01 57.8 743.0 13.01 -135.3 0 -997.0 -997.0 79.4 0 401 0 0 0 78.5 73.0 0.0
2026 08/31 14:45 67.6 28.8 57.6 9.2 30.01 58.0 746.0 12.99 -135.1 0 -0.4 75.8 80.0 0 401 0 0 0 79.0 73.2 0.0
2026 08/31 15:00 69.1 30.1 84.6 6.6 30.01 58.2 742.0 13.00 -135.0 0 -0.7 74.9 80.9 0 401 0 0 0 79.3 73.2 0.0
2026 08/31 15:15 68.2 28.5 80.7 9.3 30.01 58.4 738.0 13.01 -134.9 0 -997.0 -997.0 81.2 0 401 0 0 0 79.4 73.2 0.0
2026 08/31 15:30 68.5 27.8 57.4 9.3 30.00 58.6 728.0 13.00 -134.8 0 -997.0 -997.0 82.7 0 401 0 0 0 79.6 73.1 0.0
2026 08/31 15:45 68.1 27.8 33.8 6.5 30.00 58.9 721.0 13.00 -134.7 0 -0.6 74.0 81.7 0 401 0 0 0 79.9 73.0 0.0
2026 08/31 16:00 70.3 27.3 359.4 7.9 30.00 59.2 717.0 13.01 -134.5 0 -0.5 74.9 83.1 0 401 0 0 0 80.3 72.9 0.0
2026 08/31 16:15 69.1 33.9 336.0 12.2 30.00 59.5 708.0 13.01 -134.3 0 -997.0 -997.0 80.4 0 401 0 0 0 80.5 72.5 0.0
2026 08/31 16:30 69.1 33.8 313.1 11.9 30.01 59.8 701.0 13.01 -134.0 0 -997.0 -997.0 80.7 0 401 0 0 0 81.0 72.1 0.0
2026 08/31 16:45 69.4 33.8 262.1 8.6 30.01 60.1 687.0 13.02 -133.8 0 -0.2 72.2 79.5 0 401 0 0 0 81.3 71.9 0.0
2026 08/31 17:00 68.3 35.4 284.4 10.8 30.02 60.5 669.0 13.00 -133.4 0 -0.5 71.3 82.6 0 401 0 0 0 81.8 71.4 0.0
2026 08/31 17:15 66.6 38.5 250.8 10.1 30.02 60.9 525.9 13.01 -133.1 0 -997.0 -997.0 79.8 0 401 0 0 0 81.9 71.2 0.0
2026 08/31 17:30 65.4 43.2 237.2 9.7 30.03 61.2 389.1 12.99 -132.6 0 -997.0 -997.0 74.8 0 401 0 0 0 81.3 70.9 0.0
2026 08/31 17:45 62.8 44.5 298.9 7.3 30.03 61.6 399.0 13.00 -132.2 0 -1.5 65.0 73.3 0 401 0 0 0 80.7 70.4 0.0
2026 08/31 18:00 62.0 46.3 295.4 6.9 30.04 62.1 416.6 13.01 -131.7 0 -1.9 64.1 71.3 0 401 0 0 0 80.0 70.1 0.0
2026 08/31 18:15 62.2 45.7 315.0 7.1 30.04 62.4 466.5 13.03 -131.4 0 -997.0 -997.0 70.8 0 401 0 0 0 79.3 69.6 0.0
2026 08/31 18:30 63.1 43.5 221.2 8.2 30.04 62.7 579.1 13.00 -130.9 0 -2.0 65.0 71.2 0 401 0 0 0 78.6 69.3 0.0
2026 08/31 18:45 62.7 43.4 298.7 7.2 30.05 63.1 526.9 13.00 -130.5 0 -1.9 65.9 70.1 0 401 0 0 0 78.4 69.0 0.0
2026 08/31 19:00 62.0 44.9 269.9 10.4 30.05 63.4 430.5 13.02 -130.0 0 -997.0 -997.0 68.5 0 401 0 0 0 78.0 68.5 0.0
2026 08/31 19:15 60.8 47.4 310.1 10.4 30.05 63.7 252.8 13.02 -129.6 0 -997.0 -997.0 67.6 0 401 0 0 0 77.5 68.3 0.0
2026 08/31 19:30 61.4 50.0 275.2 10.1 30.06 64.0 150.0 13.02 -129.3 0 -1.5 60.5 65.6 0 401 0 0 0 76.8 67.8 0.0
2026 08/31 19:45 58.9 49.8 307.3 12.5 30.06 64.2 55.6 12.99 -128.9 0 -1.3 59.6 64.3 0 401 0 0 0 76.0 67.4 0.0
2026 08/31 20:00 58.2 50.1 306.0 14.5 30.06 64.5 8.8 13.03 -128.5 0 -997.0 -997.0 63.4 0 401 0 0 0 75.3 66.9 0.0
2026 08/31 20:15 57.7 51.3 311.5 16.0 30.06 64.6 0.7 13.01 -128.3 0 -997.0 -997.0 62.8 0 401 0 0 0 74.7 66.7 0.0
2026 08/31 20:30 57.5 50.3 309.2 15.3 30.07 64.8 0.0 13.01 -128.1 0 -997.0 -997.0 62.0 0 401 0 0 0 73.8 66.3 0.0
2026 08/31 20:45 57.2 50.2 313.2 13.7 30.08 65.0 0.0 13.03 -127.9 0 -997.0 -997.0 60.6 0 401 0 0 0 73.1 65.9 0.0
2026 08/31 21:00 56.7 52.0 318.4 14.0 30.08 65.2 0.0 13.01 -127.8 0 -1.7 56.0 60.0 0 401 0 0 0 72.5 65.6 0.0
2026 08/31 21:15 57.3 55.8 316.9 14.8 30.07 65.2 0.0 13.00 -127.7 0 -997.0 -997.0 60.1 0 401 0 0 0 72.0 65.4 0.0
2026 08/31 21:30 55.6 56.0 316.3 14.1 30.08 65.2 0.0 13.02 -127.7 0 -997.0 -997.0 59.7 0 401 0 0 0 71.4 65.0 0.0
2026 08/31 21:45 55.3 59.5 316.8 14.2 30.08 65.3 0.0 13.01 -127.8 0 -0.2 54.2 57.6 0 401 0 0 0 70.9 64.7 0.0
2026 08/31 22:00 56.0 62.5 311.9 13.7 30.07 65.3 0.0 13.01 -127.9 0 -0.4 54.2 58.2 0 401 0 0 0 70.3 64.4 0.0
2026 08/31 22:15 54.4 63.3 309.6 11.9 30.08 65.3 0.0 13.01 -127.9 0 -997.0 -997.0 57.9 0 401 0 0 0 69.9 64.1 0.0
2026 08/31 22:30 54.8 62.8 308.7 8.9 30.08 65.2 0.0 13.01 -128.2 0 -0.1 54.2 57.4 0 401 0 0 0 69.4 63.8 0.0
2026 08/31 22:45 54.8 63.0 309.6 8.5 30.08 65.3 0.0 13.00 -128.3 0 -0.2 53.3 56.9 0 401 0 0 0 68.7 63.6 0.0
2026 08/31 23:00 54.6 63.2 308.0 10.2 30.07 65.1 0.0 13.01 -128.4 0 -0.9 53.3 57.5 0 401 0 0 0 68.4 63.2 0.0
2026 08/31 23:15 54.8 62.2 309.1 11.7 30.07 65.0 0.0 13.01 -128.7 0 -997.0 -997.0 57.1 0 401 0 0 0 67.8 63.0 0.0
2026 08/31 23:30 53.9 65.0 308.5 11.7 30.07 65.0 0.0 13.01 -128.8 0 -997.0 -997.0 55.9 0 401 0 0 0 67.6 62.8 0.0
2026 08/31 23:45 53.6 66.6 304.2 10.5 30.06 65.0 0.0 13.01 -129.0 0 -0.8 53.3 55.8 0 401 0 0 0 67.3 62.5 0.0
2026 09/01 00:00 53.2 66.7 312.3 12.4 30.06 64.9 0.0 13.00 -129.3 0 -1.1 52.4 55.6 0 401 0 0 0 66.8 62.2 0.0
2026 09/01 00:15 52.6 68.9 319.7 13.3 30.05 64.7 0.0 13.00 -129.5 0 -997.0 -997.0 55.1 0 401 0 0 0 66.6 62.1 0.0
2026 09/01 00:30 54.3 61.7 325.4 14.5 30.04 64.5 0.0 13.01 -129.6 0 -997.0 -997.0 54.4 0 401 0 0 0 66.1 61.9 0.0
2026 09/01 00:45 54.7 59.8 322.0 13.1 30.04 64.4 0.0 13.01 -129.9 0 -2.3 52.4 54.3 0 401 0 0 0 65.7 61.5 0.0
2026 09/01 01:00 54.2 61.5 301.5 11.8 30.04 64.3 0.0 13.00 -130.1 0 -0.7 52.4 55.5 0 401 0 0 0 65.1 61.3 0.0
2026 09/01 01:15 53.2 66.6 279.2 10.7 30.04 64.2 0.0 12.99 -130.3 0 -997.0 -997.0 55.6 0 401 0 0 0 65.1 61.3 0.0
2026 09/01 01:30 52.7 68.5 254.9 7.8 30.04 64.0 0.0 13.01 -130.6 0 -997.0 -997.0 55.6 0 401 0 0 0 64.6 61.0 0.0
2026 09/01 01:45 52.1 71.8 255.4 6.1 30.04 63.8 0.0 13.03 -130.7 0 -997.0 -997.0 54.1 0 401 0 0 0 64.1 60.9 0.0
2026 09/01 02:00 51.6 76.8 242.0 7.8 30.03 63.7 0.0 13.01 -131.0 0 -1.1 51.5 53.0 0 401 0 0 0 63.9 60.6 0.0
2026 09/01 02:15 50.3 85.6 245.7 8.3 30.03 63.5 0.0 13.02 -131.1 0 -997.0 -997.0 52.6 0 401 0 0 0 63.7 60.5 0.0
2026 09/01 02:30 50.5 83.7 239.9 9.4 30.02 63.4 0.0 12.99 -131.4 0 -997.0 -997.0 52.4 0 401 0 0 0 63.5 60.3 0.0
2026 09/01 02:45 51.4 86.2 235.7 12.6 30.02 63.1 0.0 12.99 -131.6 0 -997.0 -997.0 52.1 0 401 0 0 0 63.1 60.2 0.0
2026 09/01 03:00 49.3 87.0 231.2 11.3 30.01 63.0 0.0 12.99 -131.7 0 -0.7 50.6 51.4 0 401 0 0 0 63.0 60.0 0.0
2026 09/01 03:15 50.9 76.7 226.3 5.6 30.01 62.9 0.0 13.01 -132.0 0 -997.0 -997.0 50.8 0 401 0 0 0 62.7 59.9 0.0
2026 09/01 03:30 50.5 80.5 150.0 8.7 30.00 62.7 0.0 12.99 -132.1 0 -997.0 -997.0 50.1 0 401 0 0 0 62.3 59.6 0.0
2026 09/01 03:45 49.9 83.5 263.1 8.7 30.00 62.5 0.0 12.99 -132.2 0 -997.0 -997.0 49.2 0 401 0 0 0 61.9 59.5 0.0
2026 09/01 04:00 50.5 76.9 270.4 9.2 29.99 62.4 0.0 13.01 -132.5 0 -1.1 48.8 48.6 0 401 0 0 0 61.5 59.3 0.0
2026 09/01 04:15 51.2 76.5 251.3 7.7 29.99 62.2 0.0 13.02 -132.6 0 -997.0 -997.0 48.3 0 401 0 0 0 61.2 59.2 0.0
2026 09/01 04:30 50.1 83.5 229.4 7.7 29.99 62.1 0.0 13.00 -132.8 0 -997.0 -997.0 47.7 0 401 0 0 0 61.0 59.0 0.0
2026 09/01 04:45 49.6 86.4 249.5 8.3 29.99 61.9 0.0 12.99 -132.9 0 -0.0 48.8 47.8 0 401 0 0 0 60.5 58.8 0.0
2026 09/01 05:00 49.9 85.7 241.9 8.3 29.98 61.6 0.0 13.01 -133.1 0 -0.5 48.8 47.9 0 401 0 0 0 60.2 58.6 0.0
2026 09/01 05:15 48.4 90.3 242.4 8.7 29.98 61.4 0.0 13.00 -133.2 0 -997.0 -997.0 49.2 0 401 0 0 0 60.1 58.5 0.0
2026 09/01 05:30 48.3 91.0 203.6 11.7 29.97 61.3 0.0 13.00 -133.3 0 -997.0 -997.0 50.8 0 401 0 0 0 59.7 58.4 0.0
2026 09/01 05:45 48.3 92.6 238.0 10.7 29.97 61.1 0.0 13.02 -133.4 0 -1.2 46.1 49.8 0 401 0 0 0 59.5 58.2 0.0
2026 09/01 06:00 47.6 93.8 241.9 9.3 29.97 61.0 0.0 13.01 -133.7 0 -1.2 45.2 48.1 0 401 0 0 0 59.2 58.0 0.0
2026 09/01 06:15 47.2 96.9 187.7 9.2 29.97 60.8 4.1 13.01 -133.8 0 -997.0 -997.0 47.7 0 401 0 0 0 59.1 57.9 0.0
2026 09/01 06:30 48.2 101.0 247.0 11.1 29.97 60.6 31.9 13.00 -133.8 0 -997.0 -997.0 47.1 0 401 0 0 0 58.7 57.8 0.0
2026 09/01 06:45 45.9 100.2 239.4 11.7 29.97 60.4 99.7 13.02 -133.9 0 -0.7 44.3 47.6 0 401 0 0 0 58.5 57.7 0.0
2026 09/01 07:00 44.6 100.2 193.3 9.9 29.96 60.3 173.7 13.01 -134.0 0 -0.6 44.3 48.4 0 401 0 0 0 58.3 57.6 0.0
2026 09/01 07:15 45.1 100.2 250.2 11.2 29.96 60.1 235.5 13.02 -134.2 0 -997.0 -997.0 48.4 0 401 0 0 0 58.2 57.5 0.0
2026 09/01 07:30 45.1 100.2 197.5 11.9 29.96 59.9 308.4 13.00 -134.3 0 -1.3 44.3 48.7 0 401 0 0 0 58.0 57.5 0.0
2026 09/01 07:45 45.3 100.2 239.0 12.4 29.97 59.7 436.3 13.02 -134.4 0 -1.5 45.2 49.2 0 401 0 0 0 57.8 57.4 0.0
2026 09/01 08:00 44.6 100.2 245.0 10.6 29.96 59.5 543.9 13.00 -134.5 0 -1.8 46.1 50.4 0 401 0 0 0 57.9 57.4 0.0
2026 09/01 08:15 45.1 100.2 235.7 11.9 29.96 59.5 566.2 13.01 -134.7 0 -997.0 -997.0 51.2 0 401 0 0 0 57.9 57.4 0.0
2026 09/01 08:30 45.4 96.7 236.9 11.7 29.96 59.3 589.7 13.02 -134.7 0 -997.0 -997.0 50.5 0 401 0 0 0 58.0 57.5 0.0
2026 09/01 08:45 44.5 100.2 171.9 11.9 29.96 59.1 614.1 13.00 -134.8 0 -1.1 50.6 50.4 0 401 0 0 0 58.5 57.6 0.0
2026 09/01 09:00 44.5 100.2 264.6 12.4 29.96 58.9 629.0 13.00 -134.9 0 -997.0 -997.0 51.4 0 401 0 0 0 59.1 57.7 0.0
2026 09/01 09:15 45.0 100.2 246.2 6.2 29.96 58.9 635.5 13.01 -134.9 0 -997.0 -997.0 51.6 0 401 0 0 0 59.3 57.8 0.0
2026 09/01 09:30 45.7 100.2 257.1 5.8 29.96 58.6 662.9 13.00 -135.0 0 -0.7 50.6 52.4 0 401 0 0 0 59.9 58.4 0.0
2026 09/01 09:45 46.4 100.2 235.1 5.8 29.97 58.5 661.9 13.01 -135.1 0 -0.7 50.6 53.7 0 401 0 0 0 60.6 59.3 0.0
2026 09/01 10:00 48.1 93.8 207.6 4.1 29.97 58.4 676.5 13.00 -135.1 0 -0.2 50.6 54.8 0 401 0 0 0 61.5 60.2 0.0
2026 09/01 10:15 49.0 90.0 248.9 8.5 29.97 58.2 691.4 13.01 -135.1 0 -997.0 -997.0 54.8 0 401 0 0 0 62.2 60.9 0.0
2026 09/01 10:30 48.4 91.3 246.8 9.4 29.98 58.2 702.0 13.01 -135.3 0 0.0 51.5 54.4 0 401 0 0 0 63.5 61.9 0.0
2026 09/01 10:45 49.8 83.8 230.7 8.9 29.98 58.0 712.0 13.02 -135.3 0 -997.0 -997.0 55.5 0 401 0 0 0 64.6 62.8 0.0
2026 09/01 11:00 49.8 83.0 245.4 10.6 29.98 58.0 721.0 12.99 -135.3 0 -0.2 56.0 56.9 0 401 0 0 0 65.7 63.6 0.0
2026 09/01 11:15 50.9 75.9 252.9 12.5 29.98 58.0 726.0 13.02 -135.3 0 -997.0 -997.0 58.2 0 401 0 0 0 66.6 64.1 0.0
2026 09/01 11:30 50.8 62.6 257.3 15.5 29.98 57.8 731.0 12.99 -135.4 0 -997.0 -997.0 60.2 0 401 0 0 0 67.7 64.9 0.0
2026 09/01 11:45 51.2 52.8 171.5 17.1 29.97 57.8 692.8 13.01 -135.4 0 -0.7 56.0 60.2 0 401 0 0 0 68.6 65.8 0.0
2026 09/01 12:00 51.9 42.8 238.7 16.9 29.97 57.8 737.0 12.99 -135.4 0 -0.3 56.0 59.4 0 401 0 0 0 69.5 66.5 0.0
2026 09/01 12:15 50.9 55.6 190.5 14.0 29.97 57.8 720.0 13.00 -135.3 0 -997.0 -997.0 61.3 0 401 0 0 0 69.9 66.8 0.0
2026 09/01 12:30 53.8 53.6 184.2 14.7 29.97 57.8 692.1 12.99 -135.4 0 0.5 57.8 62.1 0 401 0 0 0 70.5 67.0 0.0
2026 09/01 12:45 52.2 55.0 196.5 15.9 29.97 57.8 687.4 13.00 -135.3 0 0.2 56.9 62.9 0 401 0 0 0 71.1 67.5 0.0
2026 09/01 13:00 53.4 54.4 206.3 9.1 29.97 57.8 715.0 13.00 -135.3 0 -0.9 59.6 63.9 0 401 0 0 0 71.8 68.0 0.0
2026 09/01 13:15 55.1 51.3 234.1 13.2 29.96 57.9 728.0 13.01 -135.3 0 -997.0 -997.0 64.8 0 401 0 0 0 72.3 68.3 0.0
2026 09/01 13:30 55.3 49.9 223.4 13.8 29.96 58.0 723.0 13.03 -135.3 0 -0.6 61.4 65.0 0 401 0 0 0 73.0 68.5 0.0
2026 09/01 13:45 54.0 48.9 235.9 23.5 29.96 58.0 696.2 13.00 -135.3 0 -0.1 59.6 64.9 0 401 0 0 0 73.6 68.9 0.0
2026 09/01 14:00 53.6 56.9 228.3 20.9 29.95 58.0 736.0 13.01 -135.1 0 -997.0 -997.0 66.3 0 401 0 0 0 73.9 69.1 0.0
2026 09/01 14:15 53.7 56.3 228.5 22.2 29.96 58.1 744.0 13.01 -135.1 0 -997.0 -997.0 67.3 0 401 0 0 0 74.1 69.2 0.0
2026 09/01 14:30 55.1 52.0 200.8 22.1 29.95 58.2 753.0 12.99 -135.1 0 -997.0 -997.0 67.3 0 401 0 0 0 74.3 69.4 0.0
2026 09/01 14:45 54.7 54.4 163.7 21.6 29.95 58.2 748.0 13.00 -135.0 0 -997.0 -997.0 66.9 0 401 0 0 0 74.5 69.5 0.0
2026 09/01 15:00 53.6 54.8 237.3 16.9 29.95 58.4 623.9 12.99 -135.0 0 0.0 57.8 65.0 0 401 0 0 0 74.5 69.4 0.0
2026 09/01 15:15 52.8 57.0 156.7 20.1 29.95 58.4 609.3 13.00 -134.9 0 -997.0 -997.0 64.3 0 401 0 0 0 74.4 69.2 0.0
2026 09/01 15:30 53.4 60.3 249.8 21.5 29.96 58.6 737.0 13.02 -134.8 0 -0.3 59.6 66.4 0 401 0 0 0 74.1 68.6 0.0
2026 09/01 15:45 54.8 60.2 131.1 14.6 29.96 58.8 729.0 13.01 -134.8 0 0.0 60.5 69.2 0 401 0 0 0 74.1 68.3 0.0
2026 09/01 16:00 55.5 59.4 230.2 18.2 29.95 58.9 729.0 13.01 -134.7 0 -1.0 59.6 71.7 0 401 0 0 0 74.3 68.1 0.0
2026 09/01 16:15 55.3 61.0 187.5 19.1 29.96 59.1 692.5 13.03 -134.5 0 -997.0 -997.0 69.1 0 401 0 0 0 74.5 67.8 0.0
2026 09/01 16:30 54.5 61.6 286.5 14.8 29.96 59.2 573.0 12.99 -134.4 0 -997.0 -997.0 67.5 0 401 0 0 0 74.6 67.7 0.0
2026 09/01 16:45 52.6 65.7 271.6 19.8 29.96 59.5 558.4 12.99 -134.3 0 -0.3 56.9 64.9 0 401 0 0 0 74.4 67.4 0.0
2026 09/01 17:00 51.7 68.7 238.9 19.2 29.96 59.5 571.7 12.99 -134.2 0 -0.3 55.1 63.6 0 401 0 0 0 73.9 67.0 0.0
2026 09/01 17:15 51.4 70.2 238.1 15.9 29.97 59.7 532.3 13.01 -134.0 0 -997.0 -997.0 64.5 0 401 0 0 0 73.6 66.7 0.0
2026 09/01 17:30 50.4 71.5 228.8 17.4 29.97 59.9 477.4 12.99 -133.9 0 -0.4 54.2 63.1 0 401 0 0 0 73.2 66.3 0.0
2026 09/01 17:45 50.1 73.1 109.8 19.4 29.97 60.1 574.0 13.01 -133.8 0 -0.3 53.3 61.9 0 401 0 0 0 72.8 65.9 0.0
2026 09/01 18:00 49.4 75.7 222.6 17.8 29.97 60.3 428.5 12.99 -133.7 0 -0.3 53.3 61.9 0 401 0 0 0 72.5 65.6 0.0
2026 09/01 18:15 49.3 78.8 251.8 9.9 29.98 60.4 331.5 13.02 -133.6 0 -997.0 -997.0 60.3 0 401 0 0 0 72.0 65.3 0.0
2026 09/01 18:30 47.5 88.3 298.2 20.9 29.98 60.5 228.3 12.99 -133.4 0 -997.0 -997.0 56.9 0 401 0 0 0 71.7 64.7 0.0
2026 09/01 18:45 47.6 98.5 276.2 15.5 29.98 60.6 157.8 13.00 -133.4 0 -0.2 48.8 56.0 0 401 0 0 0 71.0 64.4 0.0
2026 09/01 19:00 45.4 100.2 203.8 14.7 29.97 60.7 204.6 13.01 -133.3 0 -0.2 47.9 54.8 0 401 0 0 0 70.2 63.9 0.0
2026 09/01 19:15 44.8 100.2 310.4 11.5 29.98 60.7 82.1 13.01 -133.3 0 -997.0 -997.0 54.1 0 401 0 0 0 69.8 63.7 0.0
2026 09/01 19:30 44.3 100.2 257.8 17.1 29.97 60.8 40.0 12.99 -133.3 0 -0.2 47.0 54.3 0 401 0 0 0 69.3 63.3 0.0
2026 09/01 19:45 44.0 100.2 293.8 22.9 29.98 60.8 17.6 13.00 -133.3 0 -0.5 47.0 53.4 0 401 0 0 0 68.7 63.0 0.0
2026 09/01 20:00 44.0 100.2 252.2 16.4 29.97 60.8 1.4 12.99 -133.3 0 -0.3 46.1 53.2 0 401 0 0 0 68.2 62.7 0.0
2026 09/01 20:15 43.8 100.2 293.4 16.5 29.97 60.8 0.0 13.00 -133.4 0 -997.0 -997.0 53.2 0 401 0 0 0 68.0 62.4 0.0
2026 09/01 20:30 43.7 100.2 284.8 18.8 29.98 60.7 0.0 13.02 -133.4 0 -997.0 -997.0 52.9 0 401 0 0 0 67.4 62.1 0.0
2026 09/01 20:45 43.3 100.2 298.6 16.7 29.98 60.6 0.0 13.00 -133.6 0 -0.5 46.1 53.0 0 401 0 0 0 67.0 61.9 0.0
2026 09/01 21:00 43.2 100.2 263.9 14.7 29.99 60.6 0.0 13.02 -133.6 0 -997.0 -997.0 51.9 0 401 0 0 0 66.6 61.5 0.0
2026 09/01 21:15 43.0 100.2 276.1 15.1 29.98 60.5 0.0 13.00 -133.7 0 -997.0 -997.0 51.9 0 401 0 0 0 66.3 61.4 0.0
2026 09/01 21:30 42.9 100.2 272.0 18.7 29.98 60.4 0.0 13.00 -133.8 0 -997.0 -997.0 52.1 0 401 0 0 0 65.9 61.2 0.0
2026 09/01 21:45 43.0 100.2 303.9 13.5 29.98 60.3 0.0 13.02 -133.9 0 -997.0 -997.0 51.7 0 401 0 0 0 65.6 60.9 0.0
2026 09/01 22:00 42.9 100.2 309.5 14.9 29.98 60.1 0.0 13.01 -134.0 0 -0.1 44.3 50.4 0 401 0 0 0 65.0 60.6 0.0
2026 09/01 22:15 43.0 100.2 297.0 16.0 29.98 59.9 0.0 13.02 -134.2 0 -997.0 -997.0 51.0 0 401 0 0 0 64.9 60.5 0.0
2026 09/01 22:30 43.0 100.2 264.0 12.6 29.98 59.8 0.0 12.99 -134.3 0 -0.0 44.3 50.4 0 401 0 0 0 64.6 60.3 0.0
2026 09/01 22:45 44.3 101.0 189.5 10.1 29.97 59.7 0.0 12.99 -134.4 0 -997.0 -997.0 50.1 0 401 0 0 0 64.2 60.1 0.0
2026 09/01 23:00 42.7 100.2 284.0 12.5 29.97 59.5 0.0 13.01 -134.5 0 0.2 44.3 50.4 0 401 0 0 0 64.0 60.0 0.0
2026 09/01 23:15 42.7 100.2 198.1 15.5 29.96 59.3 0.0 13.01 -134.7 0 -997.0 -997.0 50.1 0 401 0 0 0 63.8 59.9 0.0
2026 09/01 23:30 42.6 100.2 295.4 17.9 29.95 59.2 0.0 13.03 -134.7 0 -997.0 -997.0 50.1 0 401 0 0 0 63.6 59.6 0.0
2026 09/01 23:45 42.6 100.2 353.6 12.5 29.95 59.0 0.0 13.00 -134.8 0 0.6 43.4 49.7 0 401 0 0 0 63.2 59.5 0.0
2026 09/02 00:00 42.4 100.2 306.0 15.5 29.95 58.9 0.0 12.99 -134.9 0 0.4 43.4 48.9 0 401 0 0 0 62.9 59.4 0.0
2026 09/02 00:15 42.4 100.2 253.5 13.9 29.93 58.6 0.0 13.01 -135.0 0 -997.0 -997.0 49.3 0 401 0 0 0 62.9 59.3 0.0
2026 09/02 00:30 42.3 100.2 233.1 15.3 29.93 58.4 0.0 13.01 -135.1 0 -997.0 -997.0 49.4 0 401 0 0 0 62.3 59.1 0.0
2026 09/02 00:45 42.3 100.2 264.1 12.5 29.93 58.2 0.0 12.99 -135.1 0 0.3 43.4 49.3 0 401 0 0 0 62.1 59.0 0.0
2026 09/02 01:00 42.3 100.2 220.7 15.3 29.92 58.0 0.0 13.01 -135.3 0 0.4 43.4 49.5 0 401 0 0 0 61.8 58.7 0.0
2026 09/02 01:15 42.3 100.2 286.0 12.5 29.93 57.9 0.0 13.01 -135.4 0 -997.0 -997.0 49.5 0 401 0 0 0 61.5 58.7 0.0
2026 09/02 01:30 42.3 100.2 216.8 14.8 29.93 57.7 0.0 12.99 -135.4 0 0.3 43.4 49.6 0 401 0 0 0 61.3 58.6 0.0
2026 09/02 01:45 41.7 100.2 244.7 18.9 29.92 57.6 0.0 13.00 -135.5 0 -997.0 -997.0 48.9 0 401 0 0 0 61.0 58.4 0.0
2026 09/02 02:00 41.6 100.2 243.9 9.8 29.92 57.4 0.0 13.01 -135.6 0 -0.1 43.4 49.0 0 401 0 0 0 60.7 58.3 0.0
2026 09/02 02:15 41.6 100.2 251.6 16.4 29.92 57.1 0.0 13.02 -135.6 0 -997.0 -997.0 49.2 0 401 0 0 0 60.5 58.2 0.0
2026 09/02 02:30 41.2 100.2 168.7 9.3 29.91 56.9 0.0 13.01 -135.8 0 -997.0 -997.0 49.2 0 401 0 0 0 60.3 58.2 0.0
2026 09/02 02:45 41.1 100.2 184.9 16.6 29.90 56.7 0.0 13.01 -135.9 0 -0.1 43.4 49.3 0 401 0 0 0 60.1 58.0 0.0
2026 09/02 03:00 41.1 100.2 239.2 14.4 29.90 56.6 0.0 12.99 -135.9 0 -997.0 -997.0 49.0 0 401 0 0 0 60.0 57.8 0.0
2026 09/02 03:15 41.1 100.2 217.1 16.2 29.89 56.5 0.0 13.01 -136.0 0 -997.0 -997.0 49.0 0 402 0 0 0 59.7 57.7 0.0
2026 09/02 03:30 42.8 101.0 209.0 12.5 29.89 56.3 0.0 13.00 -136.0 0 -997.0 -997.0 48.9 0 402 0 0 0 59.6 57.7 0.0
2026 09/02 03:45 41.5 100.2 247.2 15.4 29.88 56.1 0.0 13.01 -136.0 0 0.1 42.5 48.9 0 402 0 0 0 59.5 57.6 0.0
2026 09/02 04:00 41.3 100.2 275.3 15.8 29.88 55.9 0.0 13.01 -136.1 0 -0.2 42.5 48.8 0 402 0 0 0 59.3 57.5 0.0
2026 09/02 04:15 41.6 100.2 182.1 13.9 29.88 55.6 0.0 13.02 -136.1 0 -997.0 -997.0 48.6 0 402 0 0 0 59.1 57.4 0.0
2026 09/02 04:30 41.6 100.2 211.6 16.4 29.87 55.5 0.0 13.00 -136.2 0 -997.0 -997.0 48.5 0 402 0 0 0 59.0 57.3 0.0
2026 09/02 04:45 41.6 100.2 204.1 14.9 29.87 55.4 0.0 13.01 -136.2 0 -0.5 43.4 48.4 0 402 0 0 0 58.7 57.2 0.0
2026 09/02 05:00 41.5 100.2 230.2 21.3 29.86 55.2 0.0 12.99 -136.4 0 -997.0 -997.0 48.5 0 402 0 0 0 58.6 57.0 0.0
2026 09/02 05:15 41.3 100.2 233.1 12.1 29.86 55.0 0.0 13.00 -136.4 0 -997.0 -997.0 48.6 0 402 0 0 0 58.4 57.0 0.0
2026 09/02 05:30 41.2 100.2 200.0 13.1 29.85 54.8 0.0 13.00 -136.4 0 -997.0 -997.0 48.5 0 402 0 0 0 58.3 56.9 0.0
2026 09/02 05:45 41.1 100.2 206.7 9.8 29.85 54.7 0.0 13.02 -136.5 0 -0.3 42.5 48.6 0 402 0 0 0 58.2 56.8 0.0
2026 09/02 06:00 41.0 100.2 144.0 13.5 29.84 54.6 0.0 12.99 -136.5 0 -997.0 -997.0 47.7 0 402 0 0 0 58.0 56.7 0.0
2026 09/02 06:15 41.1 100.2 100.6 14.5 29.84 54.4 1.4 13.01 -136.5 0 -997.0 -997.0 47.9 0 402 0 0 0 57.9 56.7 0.0
2026 09/02 06:30 41.1 100.2 255.0 14.0 29.83 54.1 12.9 12.99 -136.5 0 -0.3 42.5 48.0 0 402 0 0 0 57.7 56.6 0.0
2026 09/02 06:45 41.0 100.2 182.7 16.2 29.82 54.1 96.4 12.99 -136.6 0 -997.0 -997.0 47.8 0 402 0 0 0 57.6 56.5 0.0
2026 09/02 07:00 40.7 100.2 191.1 11.8 29.82 53.9 165.6 13.00 -136.6 0 -997.0 -997.0 47.1 0 402 0 0 0 57.5 56.4 0.0
2026 09/02 07:15 40.7 100.2 193.4 14.8 29.82 53.7 168.6 13.02 -136.6 0 -997.0 -997.0 47.5 0 402 0 0 0 57.4 56.4 0.0
2026 09/02 07:30 40.5 100.2 190.7 27.6 29.81 53.6 301.6 12.99 -136.6 0 -997.0 -997.0 47.6 0 402 0 0 0 57.3 56.2 0.0
2026 09/02 07:45 40.7 100.2 128.7 19.6 29.81 53.5 372.9 13.01 -136.7 0 0.2 43.4 48.8 0 402 0 0 0 57.2 56.1 0.0
2026 09/02 08:00 41.0 100.2 173.2 22.4 29.81 53.3 342.3 13.02 -136.7 0 0.1 44.3 49.6 0 402 0 0 0 57.3 56.1 0.0
2026 09/02 08:15 41.1 100.2 203.3 27.3 29.80 53.3 345.1 13.00 -136.7 0 -997.0 -997.0 49.9 0 402 0 0 0 57.3 56.1 0.0
2026 09/02 08:30 42.3 95.3 183.2 30.5 29.80 53.1 369.5 13.00 -136.7 0 -997.0 -997.0 50.3 0 402 0 0 0 57.4 56.0 0.0
2026 09/02 08:45 44.0 88.2 217.5 23.6 29.79 53.0 501.8 12.99 -136.7 0 -997.0 -997.0 51.4 0 402 0 0 0 57.4 55.9 0.0
2026 09/02 09:00 43.4 83.2 202.9 25.6 29.78 52.9 396.0 13.01 -136.7 0 0.1 46.1 51.5 0 402 0 0 0 57.7 56.0 0.0
2026 09/02 09:15 43.7 81.2 199.1 30.4 29.78 52.7 398.0 12.99 -136.9 0 -997.0 -997.0 51.9 0 402 0 0 0 57.7 56.0 0.0
2026 09/02 09:30 43.5 83.6 194.8 21.3 29.78 52.7 429.2 12.99 -136.9 0 0.2 46.1 52.0 0 402 0 0 0 57.9 56.0 0.0
2026 09/02 09:45 43.7 83.1 186.4 21.3 29.78 52.5 461.8 13.01 -136.9 0 0.2 46.1 52.6 0 402 0 0 0 57.9 56.0 0.0
2026 09/02 10:00 43.7 82.3 180.4 25.1 29.78 52.5 409.5 12.99 -136.9 0 -997.0 -997.0 52.0 0 402 0 0 0 58.2 55.9 0.0
2026 09/02 10:15 43.7 83.5 80.5 23.8 29.77 52.3 483.5 12.99 -136.9 0 -997.0 -997.0 52.1 0 402 0 0 0 58.2 55.9 0.0
2026 09/02 10:30 43.9 83.4 216.0 22.4 29.77 52.3 444.8 13.00 -136.9 0 -997.0 -997.0 52.5 0 402 0 0 0 58.3 55.9 0.0
2026 09/02 10:45 43.9 83.5 174.7 29.9 29.77 52.1 458.4 13.00 -137.0 0 -0.1 47.0 52.8 0 402 0 0 0 58.4 55.9 0.0
2026 09/02 11:00 42.6 92.3 210.2 22.8 29.77 52.1 417.7 13.00 -137.0 0 -0.1 46.1 51.7 0 402 0 0 0 58.3 55.9 0.0
2026 09/02 11:15 41.8 100.2 213.1 12.5 29.78 51.8 322.0 13.01 -137.0 0 -997.0 -997.0 51.4 0 403 0 0 0 58.4 55.9 0.0
2026 09/02 11:30 41.2 100.2 212.2 24.0 29.77 51.9 315.2 13.01 -137.0 0 -997.0 -997.0 51.6 0 404 0 0 0 58.3 55.9 0.0
2026 09/02 11:45 41.0 100.2 199.1 26.1 29.77 51.7 352.9 13.00 -137.0 0 -997.0 -997.0 50.6 0 405 0 0 0 58.3 55.8 0.0
2026 09/02 12:00 42.7 101.1 205.9 24.0 29.77 51.6 381.7 13.00 -137.0 0 0.1 44.3 50.2 0 406 0 0 0 58.3 55.8 0.0
2026 09/02 12:15 41.2 100.2 204.0 16.0 29.77 51.6 463.2 13.01 -137.0 0 -997.0 -997.0 50.8 0 407 0 0 0 58.2 55.8 0.0
2026 09/02 12:30 41.1 100.2 170.0 15.8 29.76 51.5 376.3 13.00 -137.0 0 -997.0 -997.0 52.0 0 409 0 0 0 58.2 55.8 0.0
2026 09/02 12:45 41.2 100.2 179.6 21.9 29.75 51.4 322.7 13.01 -137.0 0 -0.5 44.3 50.5 0 412 0 0 0 58.2 55.8 0.0
2026 09/02 13:00 41.4 100.2 212.3 30.2 29.74 51.3 357.3 13.00 -137.0 0 0.2 43.4 50.3 0 414 0 0 0 58.2 55.8 0.0
2026 09/02 13:15 41.7 100.2 227.1 28.7 29.74 51.2 284.7 13.00 -137.0 0 -997.0 -997.0 49.5 0 418 0 0 0 58.2 55.7 0.0
2026 09/02 13:30 41.7 100.2 96.4 25.5 29.74 51.2 320.0 13.00 -137.1 0 -0.1 43.4 50.1 0 421 0 0 0 58.0 55.7 0.0
2026 09/02 13:45 42.1 100.2 200.6 27.8 29.73 51.1 440.4 12.98 -137.1 0 -997.0 -997.0 50.1 0 422 0 0 0 57.9 55.6 0.0
2026 09/02 14:00 42.2 100.2 193.9 23.1 29.73 51.0 414.3 13.01 -137.1 0 -0.4 44.3 50.6 0 423 0 0 0 57.9 55.5 0.0
2026 09/02 14:15 42.1 100.2 201.6 25.8 29.73 51.0 431.3 13.00 -137.1 0 -997.0 -997.0 50.3 0 423 0 0 0 57.9 55.5 0.0
2026 09/02 14:30 43.7 101.0 181.2 22.5 29.74 50.9 399.0 13.00 -137.1 0 -997.0 -997.0 50.2 0 425 0 0 0 57.8 55.5 0.0
2026 09/02 14:45 42.5 100.2 219.8 21.3 29.73 50.8 316.6 13.01 -137.1 0 -0.4 44.3 49.6 0 428 0 0 0 57.8 55.5 0.0
2026 09/02 15:00 42.6 100.2 70.5 22.2 29.74 50.8 417.7 13.00 -137.1 0 -0.5 44.3 49.6 0 432 0 0 0 57.8 55.4 0.0
2026 09/02 15:15 42.7 100.2 219.6 26.4 29.74 50.6 394.0 13.00 -137.1 0 -997.0 -997.0 50.2 0 434 0 0 0 57.7 55.4 0.0
2026 09/02 15:30 42.7 100.2 150.4 27.3 29.74 50.6 254.8 13.01 -137.1 0 -0.2 44.3 49.9 0 439 0 0 0 57.7 55.4 0.0
2026 09/02 15:45 42.7 100.2 232.9 26.7 29.73 50.6 284.0 13.00 -137.1 0 -0.5 44.3 49.7 0 442 0 0 0 57.6 55.4 0.0
2026 09/02 16:00 42.7 100.2 59.0 26.6 29.74 50.5 299.6 12.98 -137.1 0 -0.4 44.3 49.9 0 445 0 0 0 57.4 55.2 0.0
2026 09/02 16:15 42.5 100.2 165.4 30.5 29.73 50.4 315.2 12.99 -137.1 0 -997.0 -997.0 49.4 0 445 0 0 0 57.4 55.1 0.0
2026 09/02 16:30 41.6 100.2 308.7 33.8 29.74 50.4 189.0 12.99 -137.1 0 -0.1 43.4 49.3 0 448 0 0 0 57.3 55.1 0.0
2026 09/02 16:45 41.1 100.2 182.9 37.5 29.73 50.4 162.5 12.99 -137.1 0 -0.1 43.4 48.8 0 450 0 0 0 57.2 55.0 0.0
2026 09/02 17:00 41.1 100.2 184.9 27.5 29.75 50.2 107.2 13.00 -137.1 0 0.2 42.5 48.1 0 452 0 0 0 56.9 54.9 0.0
2026 09/02 17:15 40.5 100.2 230.2 33.8 29.74 50.2 157.8 13.00 -137.1 0 -997.0 -997.0 47.7 0 454 0 0 0 56.8 54.8 0.0
2026 09/02 17:30 40.1 100.2 200.2 22.8 29.74 50.2 117.1 13.00 -137.1 0 -997.0 -997.0 47.1 0 455 0 0 0 56.5 54.7 0.0
2026 09/02 17:45 39.6 100.2 217.1 27.3 29.74 50.1 157.1 13.00 -137.1 0 -0.0 41.6 47.1 0 456 0 0 0 56.4 54.6 0.0
2026 09/02 18:00 39.6 100.2 124.8 24.5 29.73 50.0 194.4 12.99 -137.2 0 -997.0 -997.0 47.0 0 456 0 0 0 56.2 54.6 0.0
2026 09/02 18:15 39.8 100.2 192.9 26.8 29.73 50.0 184.3 12.99 -137.1 0 -997.0 -997.0 47.0 0 456 0 0 0 56.0 54.5 0.0
2026 09/02 18:30 40.1 100.9 270.4 25.9 29.73 49.8 195.5 13.01 -137.2 0 -997.0 -997.0 47.7 0 457 0 0 0 56.0 54.3 0.0
2026 09/02 18:45 40.4 100.2 244.7 26.1 29.73 49.7 133.7 12.98 -137.2 0 -997.0 -997.0 47.6 0 458 0 0 0 55.8 54.3 0.0
2026 09/02 19:00 40.5 100.2 238.1 26.4 29.73 49.6 58.4 13.00 -137.2 0 0.1 41.6 47.0 0 458 0 0 0 55.7 54.2 0.0
2026 09/02 19:15 40.8 100.2 187.6 25.5 29.72 49.5 40.7 12.99 -137.2 0 -997.0 -997.0 47.4 0 460 0 0 0 55.6 54.2 0.0
2026 09/02 19:30 40.3 100.2 250.4 23.9 29.72 49.5 36.0 12.98 -137.2 0 0.2 41.6 46.9 0 461 0 0 0 55.5 54.1 0.0
2026 09/02 19:45 40.8 100.2 229.9 18.8 29.73 49.3 4.1 12.99 -137.2 0 -0.0 41.6 46.8 0 462 0 0 0 55.4 54.0 0.0
2026 09/02 20:00 40.3 100.2 241.8 25.4 29.73 49.3 0.0 12.99 -137.2 0 -997.0 -997.0 46.8 0 463 0 0 0 55.2 54.0 0.0
2026 09/02 20:15 41.1 100.9 90.9 25.5 29.73 49.1 0.0 13.01 -137.2 0 -997.0 -997.0 47.1 0 467 0 0 0 55.0 53.9 0.0
2026 09/02 20:30 40.5 100.2 235.7 19.6 29.74 49.1 0.0 12.99 -137.4 0 0.1 41.6 46.7 0 470 0 0 0 54.9 53.9 0.0
2026 09/02 20:45 39.9 100.2 283.8 12.2 29.75 49.0 0.0 13.00 -137.4 0 0.0 40.7 45.8 0 473 0 0 0 54.8 53.8 0.0
2026 09/02 21:00 39.3 100.2 304.2 11.2 29.75 48.9 0.0 12.98 -137.4 0 -0.2 40.7 46.1 0 475 0 0 0 54.7 53.8 0.0
2026 09/02 21:15 38.3 100.2 315.2 21.5 29.75 48.7 0.0 12.99 -137.4 0 -997.0 -997.0 45.7 0 475 0 0 0 54.6 53.7 0.0
2026 09/02 21:30 37.7 100.2 264.6 21.2 29.74 48.7 0.0 13.01 -137.4 0 -997.0 -997.0 45.3 0 478 0 0 0 54.3 53.5 0.0
2026 09/02 21:45 38.1 100.3 249.0 18.6 29.76 48.5 0.0 12.98 -137.4 0 -0.1 39.8 44.9 0 479 0 0 0 54.2 53.4 0.0
2026 09/02 22:00 38.3 100.2 200.0 15.3 29.75 48.4 0.0 13.01 -137.4 0 -0.1 39.8 45.2 0 479 0 0 0 54.1 53.4 0.0
2026 09/02 22:15 38.4 100.2 230.1 10.5 29.76 48.3 0.0 13.00 -137.4 0 -997.0 -997.0 45.1 0 479 0 0 0 54.0 53.3 0.0
2026 09/02 22:30 38.4 100.2 303.9 15.9 29.76 48.1 0.0 13.02 -137.4 0 -997.0 -997.0 45.3 0 479 0 0 0 53.9 53.2 0.0
2026 09/02 22:45 37.3 100.2 187.6 11.2 29.76 48.1 0.0 13.00 -137.4 0 -997.0 -997.0 44.4 0 485 0 0 0 53.7 53.1 0.0
2026 09/02 23:00 37.2 100.2 184.2 12.2 29.75 47.9 0.0 13.02 -137.4 0 0.0 38.0 44.0 0 488 0 0 0 53.5 53.1 0.0
2026 09/02 23:15 37.1 100.2 235.9 18.6 29.75 47.8 0.0 12.98 -137.5 0 -997.0 -997.0 43.4 0 489 0 0 0 53.4 53.0 0.0
2026 09/02 23:30 37.0 100.2 242.0 14.5 29.75 47.6 0.0 13.00 -137.5 0 0.0 38.0 43.9 0 489 0 0 0 53.2 52.9 0.0
2026 09/02 23:45 37.2 100.2 97.8 22.5 29.74 47.5 0.0 12.98 -137.5 0 -997.0 -997.0 43.5 0 490 0 0 0 53.1 52.8 0.0
2026 09/03 00:00 37.0 100.2 260.0 18.9 29.74 47.5 0.0 13.00 -137.5 0 0.2 38.0 43.8 0 490 0 0 0 53.0 52.7 0.0
2026 09/03 00:15 36.5 100.2 251.4 20.9 29.74 47.3 0.0 12.98 -137.5 0 -997.0 -997.0 43.6 0 490 0 0 0 52.9 52.5 0.0
2026 09/03 00:30 36.0 100.2 314.9 20.2 29.74 47.2 0.0 12.98 -137.5 0 -997.0 -997.0 43.3 0 490 0 0 0 52.7 52.4 0.0
2026 09/03 00:45 35.9 100.2 258.2 21.5 29.74 47.1 0.0 12.99 -137.5 0 -0.0 38.0 43.1 0 490 0 0 0 52.5 52.3 0.0
2026 09/03 01:00 35.9 100.2 254.4 22.7 29.74 47.0 0.0 13.01 -137.5 0 -0.0 38.0 43.0 0 490 0 0 0 52.4 52.2 0.0
2026 09/03 01:15 35.8 100.2 243.8 26.4 29.74 46.9 0.0 12.98 -137.5 0 -997.0 -997.0 42.6 0 490 0 0 0 52.4 52.2 0.0
2026 09/03 01:30 35.5 100.2 120.8 26.7 29.74 46.8 0.0 13.00 -137.5 0 -997.0 -997.0 42.6 0 490 0 0 0 52.2 52.0 0.0
2026 09/03 01:45 35.4 100.2 228.5 28.1 29.74 46.6 0.0 12.99 -137.5 0 -0.0 37.1 43.1 0 490 0 0 0 52.0 51.9 0.0
2026 09/03 02:00 35.5 100.2 238.7 24.8 29.73 46.5 0.0 12.99 -137.5 0 -997.0 -997.0 42.4 0 490 0 0 0 52.0 51.9 0.0
2026 09/03 02:15 35.0 100.2 271.0 22.2 29.73 46.4 0.0 12.98 -137.5 0 -997.0 -997.0 42.0 0 490 0 0 0 51.7 51.7 0.0
2026 09/03 02:30 35.3 100.2 237.7 17.6 29.73 46.2 0.0 12.98 -137.5 0 -0.2 37.1 41.6 0 490 0 0 0 51.5 51.5 0.0
2026 09/03 02:45 35.1 100.2 257.9 21.1 29.73 46.1 0.0 13.00 -137.5 0 -0.1 37.1 41.7 0 490 0 0 0 51.4 51.4 0.0
2026 09/03 03:00 35.4 100.2 214.2 16.9 29.73 46.0 0.0 12.98 -137.6 0 -0.4 37.1 41.8 0 490 0 0 0 51.2 51.3 0.0
2026 09/03 03:15 35.5 100.2 246.5 20.0 29.73 45.9 0.0 13.00 -137.5 0 -997.0 -997.0 42.3 0 490 0 0 0 51.2 51.2 0.0
2026 09/03 03:30 35.5 100.2 174.8 19.6 29.72 45.8 0.0 12.99 -137.6 0 -0.1 37.1 42.3 0 490 0 0 0 51.1 51.1 0.0
2026 09/03 03:45 35.4 100.2 241.9 21.4 29.72 45.6 0.0 12.99 -137.6 0 -997.0 -997.0 42.3 0 490 0 0 0 51.0 51.0 0.0
2026 09/03 04:00 35.4 100.2 237.3 25.6 29.72 45.5 0.0 13.00 -137.6 0 -0.2 37.1 41.7 0 490 0 0 0 50.9 50.9 0.0
2026 09/03 04:15 35.1 100.2 240.8 20.5 29.72 45.4 0.0 13.00 -137.6 0 -997.0 -997.0 41.8 0 490 0 0 0 50.7 50.7 0.0
2026 09/03 04:30 35.1 100.2 164.5 19.5 29.72 45.3 0.0 13.01 -137.6 0 -997.0 -997.0 42.1 0 490 0 0 0 50.6 50.6 0.0
2026 09/03 04:45 35.1 100.2 150.1 21.9 29.72 45.2 0.0 12.98 -137.6 0 -0.2 37.1 42.1 0 490 0 0 0 50.4 50.5 0.0
2026 09/03 05:00 35.0 100.2 209.8 25.1 29.71 45.1 0.0 12.99 -137.6 0 -997.0 -997.0 41.7 0 490 0 0 0 50.4 50.4 0.0
2026 09/03 05:15 35.5 100.3 128.7 20.7 29.71 45.0 0.0 12.98 -137.6 0 -997.0 -997.0 41.5 0 490 0 0 0 50.3 50.4 0.0
2026 09/03 05:30 35.0 100.2 245.4 18.8 29.71 44.8 0.0 13.00 -137.6 0 -0.2 37.1 41.7 0 490 0 0 0 50.2 50.3 0.0
2026 09/03 05:45 34.9 100.2 238.5 22.7 29.71 44.7 0.0 12.98 -137.6 0 -0.2 37.1 42.1 0 491 0 0 0 50.1 50.2 0.0
2026 09/03 06:00 34.9 100.2 260.3 18.9 29.70 44.6 0.0 13.01 -137.6 0 -997.0 -997.0 41.6 0 491 0 0 0 49.8 50.1 0.0
2026 09/03 06:15 34.5 100.2 150.3 20.9 29.70 44.5 1.4 13.00 -137.6 0 -997.0 -997.0 41.4 0 491 0 0 0 49.8 50.0 0.0
2026 09/03 06:30 35.8 100.9 228.6 21.3 29.71 44.4 16.3 12.98 -137.6 0 -997.0 -997.0 41.4 0 491 0 0 0 49.7 49.8 0.0
2026 09/03 06:45 34.3 100.2 265.7 20.0 29.71 44.3 21.0 12.99 -137.6 0 -0.0 36.2 41.5 0 491 0 0 0 49.6 49.7 0.0
2026 09/03 07:00 34.4 100.2 156.6 16.9 29.72 44.1 38.4 13.01 -137.6 0 -997.0 -997.0 41.6 0 491 0 0 0 49.5 49.6 0.0
2026 09/03 07:15 34.4 100.2 229.6 14.6 29.72 44.0 65.8 13.00 -137.6 0 -997.0 -997.0 41.5 0 492 0 0 0 49.4 49.6 0.0
2026 09/03 07:30 34.6 100.2 198.8 16.6 29.72 43.9 100.8 13.00 -137.6 0 -0.2 36.2 41.8 0 492 0 0 0 49.4 49.5 0.0
2026 09/03 07:45 34.6 100.2 198.3 15.5 29.72 43.8 142.2 12.98 -137.6 0 -0.0 36.2 42.1 0 493 0 0 0 49.3 49.4 0.0
2026 09/03 08:00 34.9 100.2 229.7 11.8 29.73 43.7 188.4 13.00 -137.6 0 -997.0 -997.0 41.8 0 494 0 0 0 49.3 49.4 0.0
2026 09/03 08:15 35.0 100.2 243.6 11.9 29.73 43.6 276.9 13.00 -137.6 0 -997.0 -997.0 42.5 0 494 0 0 0 49.3 49.4 0.0
2026 09/03 08:30 35.3 100.2 236.1 12.4 29.72 43.5 311.2 13.00 -137.6 0 -997.0 -997.0 42.9 0 495 0 0 0 49.2 49.3 0.0
2026 09/03 08:45 35.5 100.2 226.3 16.4 29.72 43.4 294.9 13.00 -137.6 0 -0.1 37.1 42.7 0 495 0 0 0 49.3 49.3 0.0
2026 09/03 09:00 35.4 100.2 185.4 14.1 29.72 43.3 332.9 12.98 -137.6 0 -0.0 37.1 43.1 0 496 0 0 0 49.3 49.3 0.0
2026 09/03 09:15 35.1 100.2 276.9 17.2 29.72 43.2 337.7 12.98 -137.6 0 -997.0 -997.0 43.0 0 497 0 0 0 49.3 49.2 0.0
2026 09/03 09:30 35.0 100.2 121.6 20.4 29.71 43.2 386.6 13.00 -137.6 0 -997.0 -997.0 43.5 0 497 0 0 0 49.3 49.2 0.0
2026 09/03 09:45 34.9 100.2 241.5 20.7 29.71 43.1 364.2 13.00 -137.6 0 -0.1 37.1 43.5 0 497 0 0 0 49.4 49.2 0.0
2026 09/03 10:00 34.8 100.2 198.1 24.4 29.71 43.0 339.7 13.00 -137.6 0 -0.2 37.1 43.0 0 498 0 0 0 49.4 49.0 0.0
2026 09/03 10:15 34.8 100.2 198.7 14.6 29.72 43.0 317.0 13.00 -137.6 0 -997.0 -997.0 42.9 0 498 0 0 0 49.4 49.0 0.0
2026 09/03 10:30 35.0 100.2 228.4 14.6 29.72 42.9 493.8 13.00 -137.6 0 -997.0 -997.0 43.9 0 498 0 0 0 49.4 49.0 0.0
2026 09/03 10:45 35.3 100.2 100.8 14.7 29.72 42.8 413.7 12.99 -137.6 0 -0.0 38.0 44.7 0 498 0 0 0 49.4 49.0 0.0
2026 09/03 11:00 37.3 100.3 212.0 10.7 29.73 42.8 400.5 12.98 -137.6 0 -0.1 38.0 44.2 0 498 0 0 0 49.5 49.0 0.0
2026 09/03 11:15 36.1 100.2 140.3 9.2 29.73 42.6 379.1 12.99 -137.6 0 -997.0 -997.0 44.3 0 498 0 0 0 49.5 49.0 0.0
2026 09/03 11:30 36.7 100.2 245.8 10.1 29.72 42.6 366.2 12.99 -137.6 0 -997.0 -997.0 45.3 0 498 0 0 0 49.6 49.0 0.0
2026 09/03 11:45 37.0 100.2 176.2 13.8 29.72 42.5 570.5 13.00 -137.6 0 0.1 40.7 46.2 0 498 0 0 0 49.8 49.2 0.0
2026 09/03 12:00 36.7 100.2 262.3 17.4 29.71 42.5 475.5 12.98 -137.6 0 -0.2 40.7 47.2 0 498 0 0 0 50.5 49.3 0.0
2026 09/03 12:15 37.3 100.2 241.1 16.1 29.71 42.5 562.7 12.98 -137.6 0 -997.0 -997.0 48.3 0 498 0 0 0 50.7 49.4 0.0
2026 09/03 12:30 37.1 100.2 187.0 20.8 29.71 42.4 655.7 12.98 -137.6 0 -0.1 41.6 49.2 0 498 0 0 0 51.2 49.6 0.0
2026 09/03 12:45 38.7 100.2 132.1 10.8 29.71 42.4 558.3 12.98 -137.6 0 -997.0 -997.0 49.7 0 498 0 0 0 51.6 50.0 0.0
2026 09/03 13:00 38.4 100.9 221.6 18.9 29.71 42.4 652.0 12.98 -137.6 0 -0.3 41.6 49.9 0 498 0 0 0 52.4 50.3 0.0
2026 09/03 13:15 38.2 100.2 203.1 12.0 29.71 42.4 621.8 13.00 -137.6 0 -997.0 -997.0 50.2 0 498 0 0 0 52.9 50.5 0.0
2026 09/03 13:30 38.1 100.2 262.7 11.7 29.71 42.4 526.7 13.00 -137.6 0 -997.0 -997.0 50.3 0 498 0 0 0 53.3 50.7 0.0
2026 09/03 13:45 38.3 100.2 200.3 16.0 29.71 42.5 584.1 13.00 -137.6 0 -0.0 43.4 51.5 0 498 0 0 0 53.8 50.9 0.0
2026 09/03 14:00 39.3 100.2 291.5 10.2 29.71 42.5 494.5 13.00 -137.6 0 -997.0 -997.0 51.0 0 498 0 0 0 54.3 51.2 0.0
2026 09/03 14:15 39.8 100.2 183.3 13.7 29.70 42.6 724.0 13.00 -137.6 0 -997.0 -997.0 52.4 0 498 0 0 0 54.8 51.4 0.0
2026 09/03 14:30 40.1 100.2 155.5 13.1 29.70 42.6 733.0 12.98 -137.6 0 -997.0 -997.0 53.7 0 498 0 0 0 55.5 52.0 0.0
2026 09/03 14:45 40.4 100.2 304.7 14.9 29.70 42.7 576.3 13.01 -137.6 0 -0.1 45.2 55.2 0 498 0 0 0 56.4 52.8 0.0
2026 09/03 15:00 39.7 99.2 249.4 10.8 29.71 42.8 563.4 13.00 -137.6 0 -0.4 44.3 53.0 0 498 0 0 0 56.8 53.0 0.0
2026 09/03 15:15 41.1 94.6 264.6 8.5 29.71 42.9 531.8 12.98 -137.6 0 -997.0 -997.0 52.6 0 498 0 0 0 57.0 53.1 0.0
2026 09/03 15:30 40.6 92.7 141.1 9.8 29.71 43.0 679.4 13.00 -137.6 0 -997.0 -997.0 53.3 0 498 0 0 0 57.3 53.1 0.0
2026 09/03 15:45 41.7 83.5 255.9 12.9 29.70 43.1 594.6 12.98 -137.6 0 -997.0 -997.0 54.6 0 498 0 0 0 57.5 53.1 0.0
2026 09/03 16:00 40.9 87.8 192.5 13.3 29.71 43.2 563.4 13.01 -137.6 0 -0.2 45.2 52.8 0 498 0 0 0 57.8 53.1 0.0
2026 09/03 16:15 41.1 86.9 249.9 9.9 29.70 43.3 556.6 12.99 -137.6 0 -997.0 -997.0 53.3 0 498 0 0 0 57.9 53.1 0.0
2026 09/03 16:30 43.5 84.0 250.4 6.0 29.70 43.5 724.0 13.01 -137.6 0 -997.0 -997.0 56.8 0 498 0 0 0 58.2 53.1 0.0
2026 09/03 16:45 41.5 79.5 190.3 13.5 29.70 43.6 456.5 13.01 -137.6 0 -0.2 45.2 54.2 0 498 0 0 0 58.6 53.1 0.0
2026 09/03 17:00 41.0 86.0 256.5 9.3 29.70 43.8 436.8 13.01 -137.6 0 -997.0 -997.0 52.9 0 498 0 0 0 58.5 53.1 0.0
2026 09/03 17:15 40.9 88.6 233.6 8.7 29.70 43.9 437.8 13.00 -137.5 0 -997.0 -997.0 52.1 0 498 0 0 0 58.3 53.0 0.0
2026 09/03 17:30 40.1 90.1 250.5 12.6 29.70 44.1 238.9 13.00 -137.5 0 0.0 43.4 51.6 0 498 0 0 0 58.0 52.8 0.0
2026 09/03 17:45 39.9 97.8 209.0 8.7 29.70 44.3 396.7 12.99 -137.5 0 0.0 41.6 49.9 0 499 0 0 0 57.8 52.7 0.0
2026 09/03 18:00 39.2 100.2 233.6 8.7 29.71 44.5 446.3 12.98 -137.5 0 0.0 42.5 49.9 0 499 0 0 0 57.4 52.5 0.0
2026 09/03 18:15 38.6 100.2 304.3 8.7 29.71 44.6 345.2 13.00 -137.5 0 -997.0 -997.0 47.9 0 499 0 0 0 57.2 52.4 0.0
2026 09/03 18:30 38.0 100.2 274.4 8.9 29.71 44.7 226.4 13.00 -137.5 0 -997.0 -997.0 47.4 0 499 0 0 0 56.8 52.2 0.0
2026 09/03 18:45 37.6 100.2 306.0 4.8 29.72 44.9 96.4 13.00 -137.5 0 0.1 39.8 46.8 0 499 0 0 0 56.5 52.1 0.0
2026 09/03 19:00 39.0 101.3 289.3 7.3 29.72 45.0 47.5 12.99 -137.5 0 0.1 39.8 45.9 0 499 0 0 0 56.2 51.9 0.0
2026 09/03 19:15 36.7 100.2 230.4 14.1 29.72 45.1 23.1 12.98 -137.5 0 -997.0 -997.0 45.4 0 500 0 0 0 55.9 51.7 0.0
2026 09/03 19:30 36.9 100.2 232.8 11.9 29.72 45.2 32.6 13.00 -137.5 0 -0.0 38.9 45.2 0 503 0 0 0 55.5 51.5 0.0
2026 09/03 19:45 36.5 100.2 233.8 12.0 29.72 45.3 5.4 13.01 -137.5 0 -0.0 38.0 44.3 0 503 0 0 0 55.0 51.4 0.0
2026 09/03 20:00 36.6 100.2 218.3 14.5 29.72 45.3 0.7 13.00 -137.5 0 -0.0 38.0 44.2 0 503 0 0 0 54.7 51.2 0.0
2026 09/03 20:15 36.5 100.2 179.4 18.4 29.72 45.3 0.0 13.01 -137.5 0 -997.0 -997.0 43.8 0 503 0 0 0 54.3 51.1 0.0
2026 09/03 20:30 36.4 100.2 246.5 15.3 29.73 45.4 0.0 12.99 -137.5 0 -997.0 -997.0 43.8 0 503 0 0 0 54.0 51.0 0.0
2026 09/03 20:45 36.4 100.2 146.8 14.2 29.74 45.4 0.0 13.00 -137.5 0 0.0 38.0 43.8 0 503 0 0 0 53.8 50.7 0.0
2026 09/03 21:00 36.4 100.2 177.5 11.1 29.74 45.4 0.0 13.01 -137.5 0 -997.0 -997.0 43.3 0 503 0 0 0 53.4 50.6 0.0
2026 09/03 21:15 36.1 100.2 199.4 13.8 29.73 45.4 0.0 13.02 -137.5 0 -997.0 -997.0 43.1 0 503 0 0 0 53.2 50.6 0.0
2026 09/03 21:30 35.9 100.2 195.4 14.0 29.73 45.4 0.0 12.98 -137.5 0 -997.0 -997.0 43.4 0 504 0 0 0 53.0 50.4 0.0
2026 09/03 21:45 35.3 100.2 220.1 14.8 29.73 45.4 0.0 13.00 -137.5 0 0.0 38.0 43.1 0 505 0 0 0 53.0 50.3 0.0
2026 09/03 22:00 35.8 100.2 178.2 16.8 29.72 45.3 0.0 13.00 -137.6 0 0.1 37.1 43.0 0 506 0 0 0 52.9 50.2 0.0
2026 09/03 22:15 35.9 100.2 184.2 17.1 29.72 45.3 0.0 13.01 -137.5 0 -997.0 -997.0 43.1 0 506 0 0 0 52.7 50.2 0.0
2026 09/03 22:30 36.7 100.2 203.6 13.8 29.73 45.2 0.0 12.98 -137.6 0 -997.0 -997.0 42.7 0 506 0 0 0 52.3 50.0 0.0
2026 09/03 22:45 36.9 100.2 232.4 13.7 29.72 45.2 0.0 12.98 -137.6 0 -997.0 -997.0 41.3 0 506 0 0 0 52.2 50.0 0.0
2026 09/03 23:00 36.9 100.2 209.0 13.1 29.72 45.1 0.0 13.00 -137.6 0 0.0 37.1 41.4 0 506 0 0 0 52.0 49.8 0.0
2026 09/03 23:15 37.0 100.2 234.0 13.4 29.71 45.0 0.0 13.02 -137.6 0 -997.0 -997.0 41.2 0 506 0 0 0 51.9 49.7 0.0
2026 09/03 23:30 37.3 99.5 197.1 11.7 29.71 45.0 0.0 12.98 -137.6 0 -997.0 -997.0 41.8 0 506 0 0 0 51.4 49.6 0.0
2026 09/03 23:45 37.3 98.8 203.9 16.7 29.71 44.9 0.0 13.00 -137.6 0 -997.0 -997.0 42.1 0 506 0 0 0 51.4 49.5 0.0
2026 09/04 00:00 37.5 96.4 120.9 16.8 29.71 44.7 0.0 12.98 -137.6 0 -0.1 38.9 42.1 0 506 0 0 0 51.2 49.4 0.0
2026 09/04 00:15 37.5 97.5 207.1 17.5 29.71 44.7 0.0 12.98 -137.6 0 -997.0 -997.0 42.2 0 506 0 0 0 51.2 49.4 0.0
2026 09/04 00:30 37.2 99.7 200.8 19.9 29.71 44.6 0.0 12.98 -137.6 0 -997.0 -997.0 42.5 0 506 0 0 0 50.7 49.3 0.0
2026 09/04 00:45 37.6 97.0 202.3 19.2 29.71 44.5 0.0 13.00 -137.6 0 0.3 38.9 42.7 0 506 0 0 0 50.6 49.2 0.0
2026 09/04 01:00 38.0 93.1 199.9 16.8 29.71 44.5 0.0 12.99 -137.6 0 -997.0 -997.0 42.5 0 506 0 0 0 50.5 49.0 0.0
2026 09/04 01:15 39.8 89.8 193.3 20.4 29.71 44.4 0.0 13.00 -137.6 0 -997.0 -997.0 42.2 0 506 0 0 0 50.4 49.0 0.0
2026 09/04 01:30 38.2 90.2 195.9 18.9 29.71 44.3 0.0 13.00 -137.6 0 -0.1 38.9 42.1 0 506 0 0 0 50.1 48.9 0.0
2026 09/04 01:45 38.0 90.3 202.5 18.4 29.72 44.1 0.0 12.99 -137.6 0 0.1 38.0 42.4 0 506 0 0 0 50.0 48.8 0.0
2026 09/04 02:00 37.8 90.5 191.3 16.2 29.72 44.0 0.0 13.00 -137.6 0 -0.4 38.9 42.5 0 506 0 0 0 49.8 48.8 0.0
2026 09/04 02:15 38.2 87.6 195.9 14.9 29.72 44.0 0.0 12.98 -137.6 0 -997.0 -997.0 42.3 0 506 0 0 0 49.6 48.7 0.0
2026 09/04 02:30 38.2 87.8 191.2 14.0 29.72 43.9 0.0 13.00 -137.6 0 -0.2 38.0 42.4 0 506 0 0 0 49.5 48.7 0.0
2026 09/04 02:45 38.1 87.2 209.5 15.2 29.72 43.8 0.0 13.01 -137.6 0 -0.0 38.9 42.3 0 506 0 0 0 49.5 48.6 0.0
2026 09/04 03:00 38.4 84.5 210.2 18.6 29.71 43.7 0.0 12.98 -137.6 0 -0.2 39.8 42.3 0 506 0 0 0 49.3 48.5 0.0
2026 09/04 03:15 39.5 86.0 203.2 15.5 29.71 43.6 0.0 13.00 -137.6 0 -997.0 -997.0 42.3 0 506 0 0 0 49.2 48.4 0.0
2026 09/04 03:30 38.0 86.9 194.3 11.7 29.71 43.5 0.0 13.00 -137.6 0 -0.3 38.9 42.5 0 506 0 0 0 49.2 48.4 0.0
2026 09/04 03:45 37.6 89.7 201.2 9.1 29.71 43.5 0.0 12.99 -137.6 0 -0.1 38.9 42.4 0 506 0 0 0 49.0 48.4 0.0
2026 09/04 04:00 37.6 90.3 173.1 13.8 29.72 43.4 0.0 12.98 -137.6 0 0.0 38.9 42.5 0 506 0 0 0 48.9 48.3 0.0
2026 09/04 04:15 36.0 100.2 170.3 12.9 29.71 43.3 0.0 12.99 -137.6 0 -997.0 -997.0 42.4 0 506 0 0 0 48.8 48.3 0.0
2026 09/04 04:30 37.3 100.9 192.6 17.5 29.72 43.2 0.0 13.00 -137.6 0 -997.0 -997.0 42.4 0 507 0 0 0 48.9 48.2 0.0
2026 09/04 04:45 35.4 100.2 201.4 16.9 29.72 43.1 0.0 12.98 -137.6 0 0.0 37.1 42.4 0 510 0 0 0 48.8 48.2 0.0
2026 09/04 05:00 35.8 100.2 197.2 22.0 29.72 43.0 0.0 12.99 -137.6 0 -0.0 37.1 41.8 0 513 0 0 0 48.6 48.0 0.0
2026 09/04 05:15 35.1 100.2 169.9 13.9 29.72 43.0 0.0 13.00 -137.6 0 -997.0 -997.0 42.1 0 516 0 0 0 48.7 48.0 0.0
2026 09/04 05:30 36.4 100.2 180.5 12.4 29.72 42.9 0.0 12.98 -137.6 0 -997.0 -997.0 41.7 0 517 0 0 0 48.5 48.0 0.0
2026 09/04 05:45 37.5 92.4 165.6 8.9 29.72 42.8 0.0 12.99 -137.6 0 -997.0 -997.0 41.6 0 517 0 0 0 48.4 47.9 0.0
2026 09/04 06:00 37.7 91.3 138.8 6.9 29.72 42.8 0.0 13.01 -137.6 0 -0.2 37.1 42.2 0 517 0 0 0 48.3 47.9 0.0
2026 09/04 06:15 38.1 89.5 173.9 9.2 29.72 42.6 0.7 13.00 -137.6 0 -997.0 -997.0 42.0 0 517 0 0 0 48.2 47.8 0.0
2026 09/04 06:30 38.3 88.2 177.9 10.4 29.72 42.5 8.2 13.01 -137.6 0 -997.0 -997.0 41.7 0 517 0 0 0 48.2 47.8 0.0
2026 09/04 06:45 37.8 90.6 175.4 8.8 29.73 42.4 46.2 12.99 -137.6 0 0.0 37.1 41.8 0 517 0 0 0 48.2 47.7 0.0
2026 09/04 07:00 37.6 92.4 177.2 9.3 29.73 42.4 130.7 12.98 -137.6 0 0.0 37.1 42.3 0 517 0 0 0 48.2 47.7 0.0
2026 09/04 07:15 37.2 95.5 185.3 8.0 29.74 42.3 103.9 12.99 -137.6 0 -997.0 -997.0 42.5 0 517 0 0 0 48.2 47.6 0.0
2026 09/04 07:30 36.7 99.6 188.9 10.5 29.74 42.2 106.6 12.99 -137.6 0 -997.0 -997.0 42.6 0 517 0 0 0 48.2 47.6 0.0
2026 09/04 07:45 36.4 100.2 167.4 10.6 29.75 42.2 106.9 13.00 -137.6 0 -0.2 38.0 42.9 0 517 0 0 0 48.2 47.7 0.0
2026 09/04 08:00 36.0 100.2 177.9 9.5 29.75 42.1 193.1 12.98 -137.6 0 -997.0 -997.0 43.1 0 520 0 0 0 48.0 47.6 0.0
2026 09/04 08:15 36.4 100.2 158.2 10.4 29.75 42.1 264.4 12.98 -137.6 0 -997.0 -997.0 43.3 0 520 0 0 0 48.0 47.6 0.0
2026 09/04 08:30 37.3 100.2 182.5 8.7 29.76 42.0 319.4 13.01 -137.6 0 -0.3 39.8 44.8 0 520 0 0 0 48.2 47.6 0.0
2026 09/04 08:45 37.8 98.2 187.5 8.8 29.76 42.0 402.9 12.99 -137.6 0 -0.2 40.7 45.4 0 520 0 0 0 48.3 47.7 0.0
2026 09/04 09:00 38.2 96.9 194.1 7.4 29.76 42.0 450.4 13.01 -137.6 0 -0.4 41.6 46.8 0 520 0 0 0 48.5 47.7 0.0
2026 09/04 09:15 39.0 100.1 155.1 2.8 29.76 41.9 423.9 13.00 -137.6 0 -997.0 -997.0 47.7 0 520 0 0 0 48.9 47.8 0.0
2026 09/04 09:30 38.4 100.2 188.3 9.9 29.76 41.9 410.3 12.98 -137.6 0 -997.0 -997.0 47.2 0 520 0 0 0 49.4 48.2 0.0
2026 09/04 09:45 38.2 100.2 196.6 8.6 29.76 41.8 495.8 13.00 -137.6 0 0.0 42.5 48.7 0 520 0 0 0 49.7 48.4 0.0
2026 09/04 10:00 39.2 100.2 165.7 6.0 29.76 41.8 514.8 13.00 -137.6 0 -0.1 42.5 49.6 0 520 0 0 0 50.1 48.6 0.0
2026 09/04 10:15 39.3 100.2 156.6 9.7 29.77 41.8 460.9 13.00 -137.6 0 -997.0 -997.0 49.9 0 520 0 0 0 50.5 48.9 0.0
2026 09/04 10:30 38.8 100.2 179.5 13.8 29.77 41.8 331.6 13.00 -137.6 0 -0.1 41.6 49.5 0 520 0 0 0 51.1 49.3 0.0
2026 09/04 10:45 38.4 100.2 200.1 9.2 29.77 41.9 381.8 13.00 -137.6 0 0.0 41.6 48.7 0 520 0 0 0 51.4 49.4 0.0
2026 09/04 11:00 39.2 100.2 179.9 9.3 29.78 41.9 506.7 13.00 -137.6 0 -0.2 42.5 50.1 0 520 0 0 0 51.5 49.5 0.0
2026 09/04 11:15 41.0 100.9 168.4 9.9 29.78 41.9 412.7 12.99 -137.6 0 -997.0 -997.0 51.4 0 520 0 0 0 51.9 49.7 0.0
2026 09/04 11:30 39.7 100.2 149.0 8.9 29.79 41.9 365.5 12.98 -137.6 0 -997.0 -997.0 49.6 0 520 0 0 0 52.3 49.8 0.0
2026 09/04 11:45 39.8 100.2 147.3 5.8 29.79 42.0 437.1 12.99 -137.6 0 0.1 42.5 49.5 0 520 0 0 0 52.5 50.0 0.0
2026 09/04 12:00 39.4 100.2 166.1 12.4 29.79 42.0 392.0 13.01 -137.6 0 -0.2 42.5 49.9 0 520 0 0 0 52.9 50.0 0.0
2026 09/04 12:15 39.5 100.2 196.3 4.7 29.79 42.1 348.2 13.02 -137.6 0 -997.0 -997.0 50.1 0 521 0 0 0 52.9 50.0 0.0
2026 09/04 12:30 39.5 100.2 130.7 14.0 29.79 42.1 540.0 13.01 -137.6 0 -997.0 -997.0 49.0 0 524 0 0 0 52.8 50.0 0.0
2026 09/04 12:45 40.5 100.2 204.1 8.1 29.79 42.2 472.1 13.00 -137.6 0 -0.4 44.3 51.3 0 524 0 0 0 53.1 50.2 0.0
2026 09/04 13:00 39.5 98.8 183.7 11.2 29.79 42.2 510.1 13.00 -137.6 0 -997.0 -997.0 50.5 0 527 0 0 0 53.5 50.7 0.0
2026 09/04 13:15 41.3 98.2 180.4 6.0 29.79 42.3 648.9 12.99 -137.6 0 -997.0 -997.0 52.2 0 528 0 0 0 53.8 50.9 0.0
2026 09/04 13:30 42.1 94.1 178.0 7.7 29.79 42.4 567.8 12.99 -137.6 0 -997.0 -997.0 53.2 0 528 0 0 0 54.3 51.3 0.0
2026 09/04 13:45 42.5 93.1 220.0 9.3 29.80 42.5 514.2 13.02 -137.6 0 0.0 46.1 53.9 0 528 0 0 0 55.2 52.2 0.0
2026 09/04 14:00 43.1 94.3 177.4 11.4 29.80 42.6 588.8 12.99 -137.6 0 -0.1 48.8 54.9 0 528 0 0 0 55.9 52.5 0.0
2026 09/04 14:15 43.7 88.9 202.0 7.9 29.80 42.6 587.8 13.00 -137.6 0 -997.0 -997.0 57.4 0 528 0 0 0 56.5 53.1 0.0
2026 09/04 14:30 43.8 95.4 241.6 11.3 29.81 42.8 625.1 13.00 -137.6 0 -0.5 47.0 56.0 0 528 0 0 0 57.5 53.5 0.0
2026 09/04 14:45 42.2 90.3 237.0 12.5 29.81 42.9 657.1 13.00 -137.6 0 -0.4 47.9 56.5 0 528 0 0 0 58.3 53.9 0.0
2026 09/04 15:00 43.7 92.7 245.7 11.7 29.82 43.0 699.5 13.00 -137.6 0 -997.0 -997.0 56.2 0 528 0 0 0 59.1 54.2 0.0
2026 09/04 15:15 42.2 89.3 214.8 16.8 29.82 43.2 566.4 12.97 -137.6 0 -997.0 -997.0 55.9 0 528 0 0 0 59.4 54.5 0.0
2026 09/04 15:30 43.1 86.0 179.0 12.0 29.82 43.3 709.0 13.01 -137.6 0 -0.0 49.7 56.6 0 528 0 0 0 59.6 54.6 0.0
2026 09/04 15:45 44.4 89.3 182.5 12.2 29.82 43.5 481.2 12.98 -137.6 0 -0.4 48.8 56.1 0 528 0 0 0 59.7 54.7 0.0
2026 09/04 16:00 43.5 90.2 179.8 6.6 29.83 43.7 396.1 13.01 -137.5 0 -0.3 47.0 54.7 0 528 0 0 0 59.4 54.6 0.0
2026 09/04 16:15 43.6 89.3 215.0 4.1 29.83 43.8 427.3 13.00 -137.5 0 -997.0 -997.0 54.3 0 528 0 0 0 59.4 54.6 0.0
2026 09/04 16:30 42.8 88.2 228.4 8.9 29.84 44.0 216.5 12.99 -137.5 0 -997.0 -997.0 53.7 0 528 0 0 0 59.4 54.6 0.0
2026 09/04 16:45 41.7 94.0 200.7 3.5 29.84 44.1 440.2 12.99 -137.5 0 0.1 44.3 52.6 0 528 0 0 0 59.4 54.6 0.0
2026 09/04 17:00 39.9 100.2 70.2 9.8 29.84 44.4 393.0 13.01 -137.5 0 -997.0 -997.0 51.0 0 528 0 0 0 59.4 54.6 0.0
2026 09/04 17:15 38.8 100.2 63.2 9.8 29.85 44.5 405.6 13.00 -137.5 0 -997.0 -997.0 51.0 0 528 0 0 0 59.4 54.6 0.0
2026 09/04 17:30 38.7 100.2 91.0 8.8 29.85 44.7 164.6 13.00 -137.5 0 0.2 41.6 50.2 0 528 0 0 0 59.4 54.6 0.0
2026 09/04 17:45 38.6 100.2 118.0 8.5 29.87 44.8 42.8 13.00 -137.5 0 -997.0 -997.0 48.3 0 528 0 0 0 59.4 54.6 0.0
2026 09/04 18:00 38.6 100.2 160.1 6.0 29.87 45.0 42.8 13.00 -137.5 0 0.2 38.9 47.7 0 528 0 0 0 69.6 52.7 0.0
2026 09/04 18:15 39.0 93.2 81.3 4.1 29.87 45.1 212.1 12.98 -137.5 0 -997.0 -997.0 46.8 0 537 0 0 0 72.7 52.4 0.0
2026 09/04 18:30 41.3 87.2 214.1 5.4 29.87 45.2 141.5 13.02 -137.5 0 0.2 39.8 46.7 0 538 0 0 0 75.5 52.2 0.0
2026 09/04 18:45 37.8 100.2 274.9 11.9 29.89 45.2 40.0 13.00 -137.5 0 -997.0 -997.0 45.8 0 539 0 0 0 76.8 52.0 0.0
2026 09/04 19:00 37.2 100.2 235.4 8.5 29.89 45.3 21.0 13.00 -137.5 0 0.2 38.9 45.9 0 541 0 0 0 77.2 51.9 0.0
2026 09/04 19:15 38.3 96.7 188.8 10.8 29.88 45.4 67.2 13.00 -137.5 0 -997.0 -997.0 45.4 0 545 0 0 0 77.6 51.6 0.0
2026 09/04 19:30 38.3 100.2 211.2 10.7 29.88 45.5 31.2 13.00 -137.5 0 0.2 39.8 45.4 0 545 0 0 0 78.6 51.5 0.0
2026 09/04 19:45 38.3 100.2 202.3 12.2 29.89 45.5 4.1 13.00 -137.5 0 0.1 39.8 45.4 0 545 0 0 0 79.5 51.4 0.0
2026 09/04 20:00 38.1 100.2 177.0 9.3 29.89 45.5 0.7 13.01 -137.5 0 -997.0 -997.0 45.6 0 545 0 0 0 80.2 51.3 0.0
2026 09/04 20:15 38.2 100.2 184.7 7.3 29.89 45.5 0.0 13.00 -137.5 0 -997.0 -997.0 45.3 0 545 0 0 0 80.5 51.2 0.0
2026 09/04 20:30 38.4 100.2 190.4 6.6 29.90 45.5 0.0 12.99 -137.5 0 0.1 39.8 44.9 0 545 0 0 0 80.5 51.1 0.0
2026 09/04 20:45 38.9 100.2 182.5 7.7 29.90 45.5 0.0 13.02 -137.5 0 0.1 39.8 45.0 0 545 0 0 0 80.0 51.0 0.0
2026 09/04 21:00 38.7 100.2 196.7 8.1 29.91 45.5 0.0 12.98 -137.5 0 0.1 39.8 45.2 0 545 0 0 0 79.4 50.9 0.0
2026 09/04 21:15 38.7 100.2 206.8 9.2 29.91 45.5 0.0 12.99 -137.5 0 -997.0 -997.0 45.1 0 545 0 0 0 79.0 50.9 0.0
2026 09/04 21:30 38.7 100.2 196.3 7.7 29.91 45.5 0.0 13.02 -137.5 0 -997.0 -997.0 45.1 0 545 0 0 0 78.4 50.9 0.0
2026 09/04 21:45 38.4 100.2 203.4 9.7 29.90 45.5 0.0 13.00 -137.5 0 0.1 38.9 44.4 0 545 0 0 0 77.9 50.7 0.0
2026 09/04 22:00 38.7 100.2 187.5 11.7 29.90 45.4 0.0 12.99 -137.5 0 0.0 39.8 44.3 0 545 0 0 0 77.3 50.7 0.0
Where:
YYYY = Year
MM/DD = Month / Date
hh:mm = Hour : Minute
Temp = Temperature outside (F) @ 5720', on tower
Humid = Humidity outside (%) @ 5720'
W_dir = Wind direction / Azimuth (degrees) @ 5720'
W_spd = Wind speed (miles per hour) @ 5720'
Barom = Sea-level air pressure (inches of mercury)
T_int = Temperature (internal) (F) - inside barometer case
Light = Outside light level (no units) - 0 = dark, 1000 = bright
Power = Power supply rail (Volts)
Temp2 = Temperature (back-up) (F)
P2 = datalogger counter channel "P2" (to be static burst counter)
Snow = Snow depth, mid-mountain (inches) @ 5010'
T_mid = Temperature, mid-mountain (F) @ 5010'
T_base = Temperature @ south lodge (F) @ 4700'
Precip = Precipitation total (inches) @ 4800' (near US20 mp81)
Notes:
1999 07/17
Barometric data in this listing should have an additional
temperature correction applied to it, based on the sensor's
internal temperature:
P_corrected = Barom + (-0.0223 * T_int) + 0.8887 (inches Hg)
2004 07/03
The air pressure correction equation has not been checked
in a long time. The air pressure reading is best used only
to observe general trends.
2006 11/18
Added precipitation gauge. Depth is precipitation equivalent in water,
for the water year (beginning October 1st) at the Hogg Pass
SnoTel station.
2011 03/11
Fixed data column title bug from adding "T_base" after "T_mid".
If you notice a bug like this it will get fixed a whole lot sooner
if you tell me about it.